<?xml version="1.0" encoding="UTF-8" standalone="no" ?>
<gpx xmlns="http://www.topografix.com/GPX/1/1" xmlns:xsi="http://www.w3.org/2001/XMLSchema-instance" xsi:schemaLocation="http://www.topografix.com/GPX/1/1 http://www.topografix.com/GPX/1/1/gpx.xsd" version="1.1" creator="VisuGPX - https://www.visugpx.com">
  <metadata>
    <name>13654553-Perles G4 bis</name>
  </metadata>
  <trk>
    <name><![CDATA[13654553-Perles G4 bis]]></name>
    <extensions>
      <line xmlns="http://www.topografix.com/GPX/gpx_style/0/2">
        <color>0000FF</color>
        <width>4</width>
      </line>
    </extensions>
    <trkseg>
      <trkpt lat="44.88717" lon="5.1848">
        <ele>935</ele>
        <time>2021-09-04T05:09:18Z</time>
      </trkpt>
      <trkpt lat="44.88713" lon="5.18483">
        <ele>935</ele>
        <time>2021-09-04T05:09:24Z</time>
      </trkpt>
      <trkpt lat="44.88705" lon="5.18478">
        <ele>935</ele>
        <time>2021-09-04T05:09:36Z</time>
      </trkpt>
      <trkpt lat="44.88687" lon="5.18461">
        <ele>934</ele>
        <time>2021-09-04T05:10:05Z</time>
      </trkpt>
      <trkpt lat="44.88643" lon="5.1843">
        <ele>933</ele>
        <time>2021-09-04T05:11:10Z</time>
      </trkpt>
      <trkpt lat="44.88604" lon="5.18409">
        <ele>933</ele>
        <time>2021-09-04T05:12:06Z</time>
      </trkpt>
      <trkpt lat="44.88541" lon="5.18393">
        <ele>933</ele>
        <time>2021-09-04T05:13:31Z</time>
      </trkpt>
      <trkpt lat="44.88507" lon="5.18395">
        <ele>932</ele>
        <time>2021-09-04T05:14:17Z</time>
      </trkpt>
      <trkpt lat="44.88454" lon="5.18407">
        <ele>932</ele>
        <time>2021-09-04T05:15:28Z</time>
      </trkpt>
      <trkpt lat="44.88439" lon="5.18413">
        <ele>931</ele>
        <time>2021-09-04T05:15:49Z</time>
      </trkpt>
      <trkpt lat="44.88392" lon="5.18492">
        <ele>933</ele>
        <time>2021-09-04T05:17:27Z</time>
      </trkpt>
      <trkpt lat="44.88369" lon="5.18543">
        <ele>932</ele>
        <time>2021-09-04T05:18:24Z</time>
      </trkpt>
      <trkpt lat="44.88324" lon="5.18513">
        <ele>926</ele>
        <time>2021-09-04T05:19:30Z</time>
      </trkpt>
      <trkpt lat="44.88311" lon="5.18501">
        <ele>923</ele>
        <time>2021-09-04T05:19:51Z</time>
      </trkpt>
      <trkpt lat="44.88291" lon="5.18474">
        <ele>918</ele>
        <time>2021-09-04T05:20:28Z</time>
      </trkpt>
      <trkpt lat="44.88264" lon="5.18494">
        <ele>915</ele>
        <time>2021-09-04T05:21:09Z</time>
      </trkpt>
      <trkpt lat="44.88259" lon="5.18496">
        <ele>914</ele>
        <time>2021-09-04T05:21:16Z</time>
      </trkpt>
      <trkpt lat="44.88257" lon="5.18494">
        <ele>914</ele>
        <time>2021-09-04T05:21:19Z</time>
      </trkpt>
      <trkpt lat="44.88285" lon="5.18442">
        <ele>914</ele>
        <time>2021-09-04T05:22:21Z</time>
      </trkpt>
      <trkpt lat="44.88289" lon="5.18425">
        <ele>914</ele>
        <time>2021-09-04T05:22:38Z</time>
      </trkpt>
      <trkpt lat="44.88289" lon="5.1842">
        <ele>913</ele>
        <time>2021-09-04T05:22:42Z</time>
      </trkpt>
      <trkpt lat="44.88286" lon="5.18418">
        <ele>913</ele>
        <time>2021-09-04T05:22:47Z</time>
      </trkpt>
      <trkpt lat="44.88263" lon="5.18433">
        <ele>910</ele>
        <time>2021-09-04T05:23:21Z</time>
      </trkpt>
      <trkpt lat="44.88262" lon="5.1843">
        <ele>910</ele>
        <time>2021-09-04T05:23:24Z</time>
      </trkpt>
      <trkpt lat="44.8829" lon="5.18344">
        <ele>915</ele>
        <time>2021-09-04T05:24:53Z</time>
      </trkpt>
      <trkpt lat="44.88287" lon="5.18336">
        <ele>915</ele>
        <time>2021-09-04T05:25:02Z</time>
      </trkpt>
      <trkpt lat="44.88283" lon="5.18333">
        <ele>915</ele>
        <time>2021-09-04T05:25:08Z</time>
      </trkpt>
      <trkpt lat="44.88278" lon="5.18334">
        <ele>915</ele>
        <time>2021-09-04T05:25:15Z</time>
      </trkpt>
      <trkpt lat="44.88273" lon="5.18337">
        <ele>915</ele>
        <time>2021-09-04T05:25:22Z</time>
      </trkpt>
      <trkpt lat="44.88213" lon="5.18403">
        <ele>911</ele>
        <time>2021-09-04T05:27:03Z</time>
      </trkpt>
      <trkpt lat="44.88167" lon="5.18438">
        <ele>910</ele>
        <time>2021-09-04T05:28:13Z</time>
      </trkpt>
      <trkpt lat="44.88136" lon="5.1847">
        <ele>909</ele>
        <time>2021-09-04T05:29:04Z</time>
      </trkpt>
      <trkpt lat="44.88114" lon="5.185">
        <ele>908</ele>
        <time>2021-09-04T05:29:45Z</time>
      </trkpt>
      <trkpt lat="44.88088" lon="5.18549">
        <ele>907</ele>
        <time>2021-09-04T05:30:43Z</time>
      </trkpt>
      <trkpt lat="44.88082" lon="5.18555">
        <ele>907</ele>
        <time>2021-09-04T05:30:53Z</time>
      </trkpt>
      <trkpt lat="44.88077" lon="5.18555">
        <ele>906</ele>
        <time>2021-09-04T05:30:59Z</time>
      </trkpt>
      <trkpt lat="44.8807" lon="5.1859">
        <ele>903</ele>
        <time>2021-09-04T05:31:34Z</time>
      </trkpt>
      <trkpt lat="44.88064" lon="5.18597">
        <ele>902</ele>
        <time>2021-09-04T05:31:44Z</time>
      </trkpt>
      <trkpt lat="44.88041" lon="5.18613">
        <ele>898</ele>
        <time>2021-09-04T05:32:18Z</time>
      </trkpt>
      <trkpt lat="44.88026" lon="5.18613">
        <ele>897</ele>
        <time>2021-09-04T05:32:38Z</time>
      </trkpt>
      <trkpt lat="44.88008" lon="5.18607">
        <ele>897</ele>
        <time>2021-09-04T05:33:03Z</time>
      </trkpt>
      <trkpt lat="44.88002" lon="5.18602">
        <ele>897</ele>
        <time>2021-09-04T05:33:12Z</time>
      </trkpt>
      <trkpt lat="44.87997" lon="5.18605">
        <ele>896</ele>
        <time>2021-09-04T05:33:20Z</time>
      </trkpt>
      <trkpt lat="44.87985" lon="5.18598">
        <ele>895</ele>
        <time>2021-09-04T05:33:37Z</time>
      </trkpt>
      <trkpt lat="44.87971" lon="5.18596">
        <ele>894</ele>
        <time>2021-09-04T05:33:56Z</time>
      </trkpt>
      <trkpt lat="44.87935" lon="5.1856">
        <ele>894</ele>
        <time>2021-09-04T05:34:55Z</time>
      </trkpt>
      <trkpt lat="44.87931" lon="5.18559">
        <ele>893</ele>
        <time>2021-09-04T05:35:00Z</time>
      </trkpt>
      <trkpt lat="44.87908" lon="5.18569">
        <ele>890</ele>
        <time>2021-09-04T05:35:32Z</time>
      </trkpt>
      <trkpt lat="44.87899" lon="5.18577">
        <ele>889</ele>
        <time>2021-09-04T05:35:46Z</time>
      </trkpt>
      <trkpt lat="44.87897" lon="5.18586">
        <ele>887</ele>
        <time>2021-09-04T05:35:55Z</time>
      </trkpt>
      <trkpt lat="44.87881" lon="5.18588">
        <ele>887</ele>
        <time>2021-09-04T05:36:17Z</time>
      </trkpt>
      <trkpt lat="44.87875" lon="5.18593">
        <ele>886</ele>
        <time>2021-09-04T05:36:26Z</time>
      </trkpt>
      <trkpt lat="44.87874" lon="5.18599">
        <ele>885</ele>
        <time>2021-09-04T05:36:32Z</time>
      </trkpt>
      <trkpt lat="44.87884" lon="5.18616">
        <ele>882</ele>
        <time>2021-09-04T05:36:53Z</time>
      </trkpt>
      <trkpt lat="44.87883" lon="5.18619">
        <ele>882</ele>
        <time>2021-09-04T05:36:56Z</time>
      </trkpt>
      <trkpt lat="44.87878" lon="5.1862">
        <ele>881</ele>
        <time>2021-09-04T05:37:03Z</time>
      </trkpt>
      <trkpt lat="44.87836" lon="5.18614">
        <ele>882</ele>
        <time>2021-09-04T05:37:59Z</time>
      </trkpt>
      <trkpt lat="44.87781" lon="5.18613">
        <ele>877</ele>
        <time>2021-09-04T05:39:12Z</time>
      </trkpt>
      <trkpt lat="44.87764" lon="5.18608">
        <ele>877</ele>
        <time>2021-09-04T05:39:36Z</time>
      </trkpt>
      <trkpt lat="44.87744" lon="5.18597">
        <ele>879</ele>
        <time>2021-09-04T05:40:04Z</time>
      </trkpt>
      <trkpt lat="44.87726" lon="5.18582">
        <ele>882</ele>
        <time>2021-09-04T05:40:32Z</time>
      </trkpt>
      <trkpt lat="44.87711" lon="5.18579">
        <ele>881</ele>
        <time>2021-09-04T05:40:52Z</time>
      </trkpt>
      <trkpt lat="44.87607" lon="5.18628">
        <ele>866</ele>
        <time>2021-09-04T05:43:19Z</time>
      </trkpt>
      <trkpt lat="44.87568" lon="5.18637">
        <ele>863</ele>
        <time>2021-09-04T05:44:11Z</time>
      </trkpt>
      <trkpt lat="44.87561" lon="5.18641">
        <ele>862</ele>
        <time>2021-09-04T05:44:21Z</time>
      </trkpt>
      <trkpt lat="44.87504" lon="5.18686">
        <ele>854</ele>
        <time>2021-09-04T05:45:49Z</time>
      </trkpt>
      <trkpt lat="44.87413" lon="5.18749">
        <ele>849</ele>
        <time>2021-09-04T05:48:04Z</time>
      </trkpt>
      <trkpt lat="44.87392" lon="5.1878">
        <ele>845</ele>
        <time>2021-09-04T05:48:44Z</time>
      </trkpt>
      <trkpt lat="44.87374" lon="5.18799">
        <ele>844</ele>
        <time>2021-09-04T05:49:14Z</time>
      </trkpt>
      <trkpt lat="44.87335" lon="5.1882">
        <ele>842</ele>
        <time>2021-09-04T05:50:10Z</time>
      </trkpt>
      <trkpt lat="44.87278" lon="5.18845">
        <ele>839</ele>
        <time>2021-09-04T05:51:30Z</time>
      </trkpt>
      <trkpt lat="44.87284" lon="5.18838">
        <ele>840</ele>
        <time>2021-09-04T05:51:40Z</time>
      </trkpt>
      <trkpt lat="44.87283" lon="5.18848">
        <ele>839</ele>
        <time>2021-09-04T05:51:50Z</time>
      </trkpt>
      <trkpt lat="44.87298" lon="5.18861">
        <ele>838</ele>
        <time>2021-09-04T05:52:13Z</time>
      </trkpt>
      <trkpt lat="44.87326" lon="5.18874">
        <ele>837</ele>
        <time>2021-09-04T05:52:53Z</time>
      </trkpt>
      <trkpt lat="44.87358" lon="5.18878">
        <ele>836</ele>
        <time>2021-09-04T05:53:35Z</time>
      </trkpt>
      <trkpt lat="44.87386" lon="5.18893">
        <ele>834</ele>
        <time>2021-09-04T05:54:15Z</time>
      </trkpt>
      <trkpt lat="44.87413" lon="5.189">
        <ele>834</ele>
        <time>2021-09-04T05:54:52Z</time>
      </trkpt>
      <trkpt lat="44.87435" lon="5.18913">
        <ele>831</ele>
        <time>2021-09-04T05:55:24Z</time>
      </trkpt>
      <trkpt lat="44.87456" lon="5.1892">
        <ele>830</ele>
        <time>2021-09-04T05:55:53Z</time>
      </trkpt>
      <trkpt lat="44.87479" lon="5.18921">
        <ele>829</ele>
        <time>2021-09-04T05:56:23Z</time>
      </trkpt>
      <trkpt lat="44.87485" lon="5.1893">
        <ele>829</ele>
        <time>2021-09-04T05:56:35Z</time>
      </trkpt>
      <trkpt lat="44.87486" lon="5.18939">
        <ele>829</ele>
        <time>2021-09-04T05:56:44Z</time>
      </trkpt>
      <trkpt lat="44.87482" lon="5.18953">
        <ele>829</ele>
        <time>2021-09-04T05:56:58Z</time>
      </trkpt>
      <trkpt lat="44.87423" lon="5.19008">
        <ele>827</ele>
        <time>2021-09-04T05:58:32Z</time>
      </trkpt>
      <trkpt lat="44.87318" lon="5.19066">
        <ele>831</ele>
        <time>2021-09-04T06:01:03Z</time>
      </trkpt>
      <trkpt lat="44.87288" lon="5.1908">
        <ele>831</ele>
        <time>2021-09-04T06:01:45Z</time>
      </trkpt>
      <trkpt lat="44.87249" lon="5.19106">
        <ele>836</ele>
        <time>2021-09-04T06:02:43Z</time>
      </trkpt>
      <trkpt lat="44.8722" lon="5.19113">
        <ele>838</ele>
        <time>2021-09-04T06:03:22Z</time>
      </trkpt>
      <trkpt lat="44.8715" lon="5.19116">
        <ele>840</ele>
        <time>2021-09-04T06:04:55Z</time>
      </trkpt>
      <trkpt lat="44.87115" lon="5.19128">
        <ele>845</ele>
        <time>2021-09-04T06:05:43Z</time>
      </trkpt>
      <trkpt lat="44.87016" lon="5.19119">
        <ele>849</ele>
        <time>2021-09-04T06:07:56Z</time>
      </trkpt>
      <trkpt lat="44.86928" lon="5.19089">
        <ele>845</ele>
        <time>2021-09-04T06:09:56Z</time>
      </trkpt>
      <trkpt lat="44.86891" lon="5.19085">
        <ele>844</ele>
        <time>2021-09-04T06:10:46Z</time>
      </trkpt>
      <trkpt lat="44.86851" lon="5.19084">
        <ele>844</ele>
        <time>2021-09-04T06:11:39Z</time>
      </trkpt>
      <trkpt lat="44.86807" lon="5.19097">
        <ele>843</ele>
        <time>2021-09-04T06:12:39Z</time>
      </trkpt>
      <trkpt lat="44.86773" lon="5.19102">
        <ele>839</ele>
        <time>2021-09-04T06:13:25Z</time>
      </trkpt>
      <trkpt lat="44.86742" lon="5.19125">
        <ele>840</ele>
        <time>2021-09-04T06:14:12Z</time>
      </trkpt>
      <trkpt lat="44.86724" lon="5.19144">
        <ele>841</ele>
        <time>2021-09-04T06:14:42Z</time>
      </trkpt>
      <trkpt lat="44.86722" lon="5.19165">
        <ele>847</ele>
        <time>2021-09-04T06:15:02Z</time>
      </trkpt>
      <trkpt lat="44.86709" lon="5.19177">
        <ele>848</ele>
        <time>2021-09-04T06:15:23Z</time>
      </trkpt>
      <trkpt lat="44.86652" lon="5.19164">
        <ele>840</ele>
        <time>2021-09-04T06:16:40Z</time>
      </trkpt>
      <trkpt lat="44.86617" lon="5.19141">
        <ele>836</ele>
        <time>2021-09-04T06:17:31Z</time>
      </trkpt>
      <trkpt lat="44.86559" lon="5.19114">
        <ele>832</ele>
        <time>2021-09-04T06:18:53Z</time>
      </trkpt>
      <trkpt lat="44.86502" lon="5.19082">
        <ele>826</ele>
        <time>2021-09-04T06:20:14Z</time>
      </trkpt>
      <trkpt lat="44.86462" lon="5.19072">
        <ele>822</ele>
        <time>2021-09-04T06:21:09Z</time>
      </trkpt>
      <trkpt lat="44.86412" lon="5.19069">
        <ele>819</ele>
        <time>2021-09-04T06:22:15Z</time>
      </trkpt>
      <trkpt lat="44.86377" lon="5.19076">
        <ele>818</ele>
        <time>2021-09-04T06:23:03Z</time>
      </trkpt>
      <trkpt lat="44.86344" lon="5.19093">
        <ele>821</ele>
        <time>2021-09-04T06:23:50Z</time>
      </trkpt>
      <trkpt lat="44.86302" lon="5.19095">
        <ele>822</ele>
        <time>2021-09-04T06:24:46Z</time>
      </trkpt>
      <trkpt lat="44.86262" lon="5.19072">
        <ele>815</ele>
        <time>2021-09-04T06:25:43Z</time>
      </trkpt>
      <trkpt lat="44.86233" lon="5.19075">
        <ele>812</ele>
        <time>2021-09-04T06:26:22Z</time>
      </trkpt>
      <trkpt lat="44.86179" lon="5.19116">
        <ele>812</ele>
        <time>2021-09-04T06:27:44Z</time>
      </trkpt>
      <trkpt lat="44.86144" lon="5.19133">
        <ele>811</ele>
        <time>2021-09-04T06:28:33Z</time>
      </trkpt>
      <trkpt lat="44.86097" lon="5.19144">
        <ele>808</ele>
        <time>2021-09-04T06:29:37Z</time>
      </trkpt>
      <trkpt lat="44.86048" lon="5.19143">
        <ele>802</ele>
        <time>2021-09-04T06:30:42Z</time>
      </trkpt>
      <trkpt lat="44.86006" lon="5.19161">
        <ele>802</ele>
        <time>2021-09-04T06:31:41Z</time>
      </trkpt>
      <trkpt lat="44.85969" lon="5.1917">
        <ele>802</ele>
        <time>2021-09-04T06:32:31Z</time>
      </trkpt>
      <trkpt lat="44.85936" lon="5.192">
        <ele>806</ele>
        <time>2021-09-04T06:33:23Z</time>
      </trkpt>
      <trkpt lat="44.8591" lon="5.19216">
        <ele>806</ele>
        <time>2021-09-04T06:34:01Z</time>
      </trkpt>
      <trkpt lat="44.85877" lon="5.19251">
        <ele>805</ele>
        <time>2021-09-04T06:34:56Z</time>
      </trkpt>
      <trkpt lat="44.85857" lon="5.19255">
        <ele>802</ele>
        <time>2021-09-04T06:35:23Z</time>
      </trkpt>
      <trkpt lat="44.85773" lon="5.19321">
        <ele>801</ele>
        <time>2021-09-04T06:37:32Z</time>
      </trkpt>
      <trkpt lat="44.85717" lon="5.1935">
        <ele>798</ele>
        <time>2021-09-04T06:38:51Z</time>
      </trkpt>
      <trkpt lat="44.85667" lon="5.19366">
        <ele>792</ele>
        <time>2021-09-04T06:40:00Z</time>
      </trkpt>
      <trkpt lat="44.85433" lon="5.1949">
        <ele>777</ele>
        <time>2021-09-04T06:45:33Z</time>
      </trkpt>
      <trkpt lat="44.85392" lon="5.19515">
        <ele>774</ele>
        <time>2021-09-04T06:46:33Z</time>
      </trkpt>
      <trkpt lat="44.85322" lon="5.19566">
        <ele>767</ele>
        <time>2021-09-04T06:48:18Z</time>
      </trkpt>
      <trkpt lat="44.8526" lon="5.19591">
        <ele>762</ele>
        <time>2021-09-04T06:49:44Z</time>
      </trkpt>
      <trkpt lat="44.85232" lon="5.19596">
        <ele>760</ele>
        <time>2021-09-04T06:50:22Z</time>
      </trkpt>
      <trkpt lat="44.85196" lon="5.19593">
        <ele>755</ele>
        <time>2021-09-04T06:51:10Z</time>
      </trkpt>
      <trkpt lat="44.8516" lon="5.19599">
        <ele>751</ele>
        <time>2021-09-04T06:51:58Z</time>
      </trkpt>
      <trkpt lat="44.85065" lon="5.19631">
        <ele>743</ele>
        <time>2021-09-04T06:54:08Z</time>
      </trkpt>
      <trkpt lat="44.85026" lon="5.19652">
        <ele>741</ele>
        <time>2021-09-04T06:55:04Z</time>
      </trkpt>
      <trkpt lat="44.84972" lon="5.19671">
        <ele>738</ele>
        <time>2021-09-04T06:56:18Z</time>
      </trkpt>
      <trkpt lat="44.84949" lon="5.19675">
        <ele>736</ele>
        <time>2021-09-04T06:56:49Z</time>
      </trkpt>
      <trkpt lat="44.84863" lon="5.19669">
        <ele>727</ele>
        <time>2021-09-04T06:58:44Z</time>
      </trkpt>
      <trkpt lat="44.8483" lon="5.1967">
        <ele>724</ele>
        <time>2021-09-04T06:59:28Z</time>
      </trkpt>
      <trkpt lat="44.84767" lon="5.1966">
        <ele>718</ele>
        <time>2021-09-04T07:00:53Z</time>
      </trkpt>
      <trkpt lat="44.84716" lon="5.19664">
        <ele>709</ele>
        <time>2021-09-04T07:02:01Z</time>
      </trkpt>
      <trkpt lat="44.84679" lon="5.19676">
        <ele>701</ele>
        <time>2021-09-04T07:02:52Z</time>
      </trkpt>
      <trkpt lat="44.84669" lon="5.19673">
        <ele>698</ele>
        <time>2021-09-04T07:03:05Z</time>
      </trkpt>
      <trkpt lat="44.84665" lon="5.1966">
        <ele>696</ele>
        <time>2021-09-04T07:03:19Z</time>
      </trkpt>
      <trkpt lat="44.8467" lon="5.19649">
        <ele>695</ele>
        <time>2021-09-04T07:03:31Z</time>
      </trkpt>
      <trkpt lat="44.84677" lon="5.19645">
        <ele>696</ele>
        <time>2021-09-04T07:03:41Z</time>
      </trkpt>
      <trkpt lat="44.84809" lon="5.19489">
        <ele>692</ele>
        <time>2021-09-04T07:07:31Z</time>
      </trkpt>
      <trkpt lat="44.84855" lon="5.19461">
        <ele>690</ele>
        <time>2021-09-04T07:08:38Z</time>
      </trkpt>
      <trkpt lat="44.84858" lon="5.19456">
        <ele>690</ele>
        <time>2021-09-04T07:08:44Z</time>
      </trkpt>
      <trkpt lat="44.84857" lon="5.19445">
        <ele>688</ele>
        <time>2021-09-04T07:08:55Z</time>
      </trkpt>
      <trkpt lat="44.84869" lon="5.19439">
        <ele>688</ele>
        <time>2021-09-04T07:09:12Z</time>
      </trkpt>
      <trkpt lat="44.84874" lon="5.19423">
        <ele>685</ele>
        <time>2021-09-04T07:09:28Z</time>
      </trkpt>
      <trkpt lat="44.84876" lon="5.19385">
        <ele>681</ele>
        <time>2021-09-04T07:10:04Z</time>
      </trkpt>
      <trkpt lat="44.84868" lon="5.1933">
        <ele>674</ele>
        <time>2021-09-04T07:10:57Z</time>
      </trkpt>
      <trkpt lat="44.84873" lon="5.193">
        <ele>671</ele>
        <time>2021-09-04T07:11:26Z</time>
      </trkpt>
      <trkpt lat="44.84876" lon="5.19294">
        <ele>671</ele>
        <time>2021-09-04T07:11:33Z</time>
      </trkpt>
      <trkpt lat="44.84938" lon="5.19309">
        <ele>676</ele>
        <time>2021-09-04T07:12:57Z</time>
      </trkpt>
      <trkpt lat="44.84975" lon="5.19325">
        <ele>680</ele>
        <time>2021-09-04T07:13:49Z</time>
      </trkpt>
      <trkpt lat="44.8499" lon="5.19335">
        <ele>683</ele>
        <time>2021-09-04T07:14:11Z</time>
      </trkpt>
      <trkpt lat="44.85008" lon="5.19342">
        <ele>685</ele>
        <time>2021-09-04T07:14:36Z</time>
      </trkpt>
      <trkpt lat="44.85025" lon="5.19345">
        <ele>686</ele>
        <time>2021-09-04T07:14:59Z</time>
      </trkpt>
      <trkpt lat="44.85043" lon="5.19353">
        <ele>689</ele>
        <time>2021-09-04T07:15:24Z</time>
      </trkpt>
      <trkpt lat="44.85064" lon="5.19353">
        <ele>691</ele>
        <time>2021-09-04T07:15:52Z</time>
      </trkpt>
      <trkpt lat="44.85086" lon="5.19346">
        <ele>692</ele>
        <time>2021-09-04T07:16:22Z</time>
      </trkpt>
      <trkpt lat="44.85115" lon="5.19354">
        <ele>696</ele>
        <time>2021-09-04T07:17:02Z</time>
      </trkpt>
      <trkpt lat="44.85133" lon="5.19356">
        <ele>699</ele>
        <time>2021-09-04T07:17:26Z</time>
      </trkpt>
      <trkpt lat="44.85186" lon="5.19347">
        <ele>704</ele>
        <time>2021-09-04T07:18:37Z</time>
      </trkpt>
      <trkpt lat="44.85241" lon="5.19315">
        <ele>707</ele>
        <time>2021-09-04T07:19:56Z</time>
      </trkpt>
      <trkpt lat="44.85258" lon="5.193">
        <ele>707</ele>
        <time>2021-09-04T07:20:23Z</time>
      </trkpt>
      <trkpt lat="44.85285" lon="5.19282">
        <ele>710</ele>
        <time>2021-09-04T07:21:03Z</time>
      </trkpt>
      <trkpt lat="44.85293" lon="5.1926">
        <ele>708</ele>
        <time>2021-09-04T07:21:26Z</time>
      </trkpt>
      <trkpt lat="44.85311" lon="5.1923">
        <ele>707</ele>
        <time>2021-09-04T07:22:03Z</time>
      </trkpt>
      <trkpt lat="44.85313" lon="5.19206">
        <ele>703</ele>
        <time>2021-09-04T07:22:26Z</time>
      </trkpt>
      <trkpt lat="44.85309" lon="5.19176">
        <ele>697</ele>
        <time>2021-09-04T07:22:55Z</time>
      </trkpt>
      <trkpt lat="44.85314" lon="5.1915">
        <ele>694</ele>
        <time>2021-09-04T07:23:21Z</time>
      </trkpt>
      <trkpt lat="44.85315" lon="5.19129">
        <ele>692</ele>
        <time>2021-09-04T07:23:41Z</time>
      </trkpt>
      <trkpt lat="44.85312" lon="5.19125">
        <ele>690</ele>
        <time>2021-09-04T07:23:46Z</time>
      </trkpt>
      <trkpt lat="44.85301" lon="5.19128">
        <ele>689</ele>
        <time>2021-09-04T07:24:01Z</time>
      </trkpt>
      <trkpt lat="44.85298" lon="5.19126">
        <ele>688</ele>
        <time>2021-09-04T07:24:06Z</time>
      </trkpt>
      <trkpt lat="44.853" lon="5.19118">
        <ele>687</ele>
        <time>2021-09-04T07:24:14Z</time>
      </trkpt>
      <trkpt lat="44.85312" lon="5.191">
        <ele>687</ele>
        <time>2021-09-04T07:24:37Z</time>
      </trkpt>
      <trkpt lat="44.85312" lon="5.19096">
        <ele>686</ele>
        <time>2021-09-04T07:24:41Z</time>
      </trkpt>
      <trkpt lat="44.85303" lon="5.19092">
        <ele>685</ele>
        <time>2021-09-04T07:24:53Z</time>
      </trkpt>
      <trkpt lat="44.85296" lon="5.19095">
        <ele>684</ele>
        <time>2021-09-04T07:25:03Z</time>
      </trkpt>
      <trkpt lat="44.85289" lon="5.19106">
        <ele>684</ele>
        <time>2021-09-04T07:25:17Z</time>
      </trkpt>
      <trkpt lat="44.85287" lon="5.19106">
        <ele>684</ele>
        <time>2021-09-04T07:25:20Z</time>
      </trkpt>
      <trkpt lat="44.85292" lon="5.19085">
        <ele>683</ele>
        <time>2021-09-04T07:25:41Z</time>
      </trkpt>
      <trkpt lat="44.853" lon="5.19075">
        <ele>684</ele>
        <time>2021-09-04T07:25:55Z</time>
      </trkpt>
      <trkpt lat="44.85344" lon="5.19076">
        <ele>690</ele>
        <time>2021-09-04T07:26:54Z</time>
      </trkpt>
      <trkpt lat="44.85441" lon="5.19084">
        <ele>705</ele>
        <time>2021-09-04T07:29:03Z</time>
      </trkpt>
      <trkpt lat="44.85476" lon="5.19095">
        <ele>709</ele>
        <time>2021-09-04T07:29:51Z</time>
      </trkpt>
      <trkpt lat="44.85506" lon="5.1911">
        <ele>713</ele>
        <time>2021-09-04T07:30:34Z</time>
      </trkpt>
      <trkpt lat="44.85567" lon="5.19168">
        <ele>718</ele>
        <time>2021-09-04T07:32:12Z</time>
      </trkpt>
      <trkpt lat="44.85583" lon="5.19174">
        <ele>720</ele>
        <time>2021-09-04T07:32:34Z</time>
      </trkpt>
      <trkpt lat="44.85593" lon="5.19181">
        <ele>723</ele>
        <time>2021-09-04T07:32:49Z</time>
      </trkpt>
      <trkpt lat="44.85621" lon="5.19167">
        <ele>723</ele>
        <time>2021-09-04T07:33:28Z</time>
      </trkpt>
      <trkpt lat="44.85636" lon="5.19153">
        <ele>725</ele>
        <time>2021-09-04T07:33:52Z</time>
      </trkpt>
      <trkpt lat="44.85651" lon="5.1911">
        <ele>726</ele>
        <time>2021-09-04T07:34:38Z</time>
      </trkpt>
      <trkpt lat="44.85658" lon="5.19068">
        <ele>729</ele>
        <time>2021-09-04T07:35:19Z</time>
      </trkpt>
      <trkpt lat="44.85668" lon="5.19039">
        <ele>733</ele>
        <time>2021-09-04T07:35:49Z</time>
      </trkpt>
      <trkpt lat="44.85688" lon="5.19016">
        <ele>737</ele>
        <time>2021-09-04T07:36:24Z</time>
      </trkpt>
      <trkpt lat="44.85708" lon="5.19009">
        <ele>737</ele>
        <time>2021-09-04T07:36:51Z</time>
      </trkpt>
      <trkpt lat="44.85718" lon="5.19013">
        <ele>738</ele>
        <time>2021-09-04T07:37:05Z</time>
      </trkpt>
      <trkpt lat="44.8574" lon="5.19013">
        <ele>738</ele>
        <time>2021-09-04T07:37:34Z</time>
      </trkpt>
      <trkpt lat="44.85755" lon="5.19005">
        <ele>739</ele>
        <time>2021-09-04T07:37:56Z</time>
      </trkpt>
      <trkpt lat="44.8577" lon="5.18987">
        <ele>743</ele>
        <time>2021-09-04T07:38:22Z</time>
      </trkpt>
      <trkpt lat="44.85776" lon="5.18973">
        <ele>745</ele>
        <time>2021-09-04T07:38:37Z</time>
      </trkpt>
      <trkpt lat="44.85801" lon="5.18937">
        <ele>748</ele>
        <time>2021-09-04T07:39:25Z</time>
      </trkpt>
      <trkpt lat="44.85823" lon="5.18914">
        <ele>747</ele>
        <time>2021-09-04T07:40:02Z</time>
      </trkpt>
      <trkpt lat="44.85869" lon="5.18886">
        <ele>758</ele>
        <time>2021-09-04T07:41:08Z</time>
      </trkpt>
      <trkpt lat="44.85888" lon="5.18882">
        <ele>760</ele>
        <time>2021-09-04T07:41:34Z</time>
      </trkpt>
      <trkpt lat="44.859" lon="5.18883">
        <ele>760</ele>
        <time>2021-09-04T07:41:50Z</time>
      </trkpt>
      <trkpt lat="44.85932" lon="5.18895">
        <ele>758</ele>
        <time>2021-09-04T07:42:34Z</time>
      </trkpt>
      <trkpt lat="44.85976" lon="5.18935">
        <ele>757</ele>
        <time>2021-09-04T07:43:44Z</time>
      </trkpt>
      <trkpt lat="44.86" lon="5.18949">
        <ele>760</ele>
        <time>2021-09-04T07:44:19Z</time>
      </trkpt>
      <trkpt lat="44.8609" lon="5.19017">
        <ele>765</ele>
        <time>2021-09-04T07:46:35Z</time>
      </trkpt>
      <trkpt lat="44.86107" lon="5.19013">
        <ele>768</ele>
        <time>2021-09-04T07:46:58Z</time>
      </trkpt>
      <trkpt lat="44.86115" lon="5.19008">
        <ele>768</ele>
        <time>2021-09-04T07:47:10Z</time>
      </trkpt>
      <trkpt lat="44.86131" lon="5.1899">
        <ele>770</ele>
        <time>2021-09-04T07:47:37Z</time>
      </trkpt>
      <trkpt lat="44.86136" lon="5.18981">
        <ele>771</ele>
        <time>2021-09-04T07:47:48Z</time>
      </trkpt>
      <trkpt lat="44.86139" lon="5.18968">
        <ele>772</ele>
        <time>2021-09-04T07:48:01Z</time>
      </trkpt>
      <trkpt lat="44.86148" lon="5.18958">
        <ele>773</ele>
        <time>2021-09-04T07:48:16Z</time>
      </trkpt>
      <trkpt lat="44.86153" lon="5.18937">
        <ele>773</ele>
        <time>2021-09-04T07:48:37Z</time>
      </trkpt>
      <trkpt lat="44.86179" lon="5.18888">
        <ele>780</ele>
        <time>2021-09-04T07:49:35Z</time>
      </trkpt>
      <trkpt lat="44.86191" lon="5.18882">
        <ele>781</ele>
        <time>2021-09-04T07:49:52Z</time>
      </trkpt>
      <trkpt lat="44.86207" lon="5.1888">
        <ele>781</ele>
        <time>2021-09-04T07:50:13Z</time>
      </trkpt>
      <trkpt lat="44.86218" lon="5.1888">
        <ele>781</ele>
        <time>2021-09-04T07:50:28Z</time>
      </trkpt>
      <trkpt lat="44.86239" lon="5.1889">
        <ele>776</ele>
        <time>2021-09-04T07:50:58Z</time>
      </trkpt>
      <trkpt lat="44.86268" lon="5.18896">
        <ele>775</ele>
        <time>2021-09-04T07:51:37Z</time>
      </trkpt>
      <trkpt lat="44.86294" lon="5.18912">
        <ele>772</ele>
        <time>2021-09-04T07:52:15Z</time>
      </trkpt>
      <trkpt lat="44.86336" lon="5.18957">
        <ele>778</ele>
        <time>2021-09-04T07:53:25Z</time>
      </trkpt>
      <trkpt lat="44.86344" lon="5.18972">
        <ele>781</ele>
        <time>2021-09-04T07:53:43Z</time>
      </trkpt>
      <trkpt lat="44.86345" lon="5.18982">
        <ele>782</ele>
        <time>2021-09-04T07:53:52Z</time>
      </trkpt>
      <trkpt lat="44.8635" lon="5.18986">
        <ele>783</ele>
        <time>2021-09-04T07:54:00Z</time>
      </trkpt>
      <trkpt lat="44.86354" lon="5.18986">
        <ele>784</ele>
        <time>2021-09-04T07:54:05Z</time>
      </trkpt>
      <trkpt lat="44.86365" lon="5.18978">
        <ele>785</ele>
        <time>2021-09-04T07:54:22Z</time>
      </trkpt>
      <trkpt lat="44.86376" lon="5.18967">
        <ele>786</ele>
        <time>2021-09-04T07:54:40Z</time>
      </trkpt>
      <trkpt lat="44.86402" lon="5.1893">
        <ele>786</ele>
        <time>2021-09-04T07:55:29Z</time>
      </trkpt>
      <trkpt lat="44.86424" lon="5.18912">
        <ele>788</ele>
        <time>2021-09-04T07:56:03Z</time>
      </trkpt>
      <trkpt lat="44.8643" lon="5.18895">
        <ele>793</ele>
        <time>2021-09-04T07:56:21Z</time>
      </trkpt>
      <trkpt lat="44.86442" lon="5.18882">
        <ele>796</ele>
        <time>2021-09-04T07:56:41Z</time>
      </trkpt>
      <trkpt lat="44.86467" lon="5.18865">
        <ele>798</ele>
        <time>2021-09-04T07:57:18Z</time>
      </trkpt>
      <trkpt lat="44.86483" lon="5.1886">
        <ele>798</ele>
        <time>2021-09-04T07:57:40Z</time>
      </trkpt>
      <trkpt lat="44.86495" lon="5.18862">
        <ele>797</ele>
        <time>2021-09-04T07:57:56Z</time>
      </trkpt>
      <trkpt lat="44.86507" lon="5.18872">
        <ele>796</ele>
        <time>2021-09-04T07:58:15Z</time>
      </trkpt>
      <trkpt lat="44.86521" lon="5.18867">
        <ele>796</ele>
        <time>2021-09-04T07:58:34Z</time>
      </trkpt>
      <trkpt lat="44.86533" lon="5.18872">
        <ele>796</ele>
        <time>2021-09-04T07:58:51Z</time>
      </trkpt>
      <trkpt lat="44.86538" lon="5.18871">
        <ele>796</ele>
        <time>2021-09-04T07:58:58Z</time>
      </trkpt>
      <trkpt lat="44.86587" lon="5.18885">
        <ele>793</ele>
        <time>2021-09-04T08:00:04Z</time>
      </trkpt>
      <trkpt lat="44.86622" lon="5.18873">
        <ele>795</ele>
        <time>2021-09-04T08:00:52Z</time>
      </trkpt>
      <trkpt lat="44.86649" lon="5.18884">
        <ele>794</ele>
        <time>2021-09-04T08:01:30Z</time>
      </trkpt>
      <trkpt lat="44.86673" lon="5.18904">
        <ele>792</ele>
        <time>2021-09-04T08:02:07Z</time>
      </trkpt>
      <trkpt lat="44.86685" lon="5.18919">
        <ele>792</ele>
        <time>2021-09-04T08:02:28Z</time>
      </trkpt>
      <trkpt lat="44.86701" lon="5.18947">
        <ele>796</ele>
        <time>2021-09-04T08:03:02Z</time>
      </trkpt>
      <trkpt lat="44.86706" lon="5.18963">
        <ele>797</ele>
        <time>2021-09-04T08:03:19Z</time>
      </trkpt>
      <trkpt lat="44.86707" lon="5.18956">
        <ele>797</ele>
        <time>2021-09-04T08:03:26Z</time>
      </trkpt>
      <trkpt lat="44.8672" lon="5.18948">
        <ele>797</ele>
        <time>2021-09-04T08:03:45Z</time>
      </trkpt>
      <trkpt lat="44.86723" lon="5.18935">
        <ele>796</ele>
        <time>2021-09-04T08:03:58Z</time>
      </trkpt>
      <trkpt lat="44.8672" lon="5.18932">
        <ele>796</ele>
        <time>2021-09-04T08:04:02Z</time>
      </trkpt>
      <trkpt lat="44.86711" lon="5.18933">
        <ele>795</ele>
        <time>2021-09-04T08:04:15Z</time>
      </trkpt>
      <trkpt lat="44.86706" lon="5.1893">
        <ele>795</ele>
        <time>2021-09-04T08:04:22Z</time>
      </trkpt>
      <trkpt lat="44.86707" lon="5.18917">
        <ele>793</ele>
        <time>2021-09-04T08:04:34Z</time>
      </trkpt>
      <trkpt lat="44.86703" lon="5.18903">
        <ele>794</ele>
        <time>2021-09-04T08:04:48Z</time>
      </trkpt>
      <trkpt lat="44.86708" lon="5.18894">
        <ele>796</ele>
        <time>2021-09-04T08:04:59Z</time>
      </trkpt>
      <trkpt lat="44.86724" lon="5.18878">
        <ele>798</ele>
        <time>2021-09-04T08:05:25Z</time>
      </trkpt>
      <trkpt lat="44.8673" lon="5.18865">
        <ele>799</ele>
        <time>2021-09-04T08:05:40Z</time>
      </trkpt>
      <trkpt lat="44.86731" lon="5.18849">
        <ele>801</ele>
        <time>2021-09-04T08:05:55Z</time>
      </trkpt>
      <trkpt lat="44.86729" lon="5.18834">
        <ele>802</ele>
        <time>2021-09-04T08:06:10Z</time>
      </trkpt>
      <trkpt lat="44.86743" lon="5.18799">
        <ele>808</ele>
        <time>2021-09-04T08:06:48Z</time>
      </trkpt>
      <trkpt lat="44.86743" lon="5.18761">
        <ele>815</ele>
        <time>2021-09-04T08:07:24Z</time>
      </trkpt>
      <trkpt lat="44.86753" lon="5.18727">
        <ele>820</ele>
        <time>2021-09-04T08:07:58Z</time>
      </trkpt>
      <trkpt lat="44.86772" lon="5.18684">
        <ele>827</ele>
        <time>2021-09-04T08:08:46Z</time>
      </trkpt>
      <trkpt lat="44.86728" lon="5.18688">
        <ele>831</ele>
        <time>2021-09-04T08:09:45Z</time>
      </trkpt>
      <trkpt lat="44.8669" lon="5.1868">
        <ele>839</ele>
        <time>2021-09-04T08:10:37Z</time>
      </trkpt>
      <trkpt lat="44.86673" lon="5.18673">
        <ele>843</ele>
        <time>2021-09-04T08:11:00Z</time>
      </trkpt>
      <trkpt lat="44.86673" lon="5.18671">
        <ele>844</ele>
        <time>2021-09-04T08:11:02Z</time>
      </trkpt>
      <trkpt lat="44.86654" lon="5.18667">
        <ele>847</ele>
        <time>2021-09-04T08:11:28Z</time>
      </trkpt>
      <trkpt lat="44.86639" lon="5.18652">
        <ele>851</ele>
        <time>2021-09-04T08:11:52Z</time>
      </trkpt>
      <trkpt lat="44.86613" lon="5.18586">
        <ele>870</ele>
        <time>2021-09-04T08:13:04Z</time>
      </trkpt>
      <trkpt lat="44.86606" lon="5.18452">
        <ele>899</ele>
        <time>2021-09-04T08:15:11Z</time>
      </trkpt>
      <trkpt lat="44.86591" lon="5.18419">
        <ele>908</ele>
        <time>2021-09-04T08:15:48Z</time>
      </trkpt>
      <trkpt lat="44.86577" lon="5.18401">
        <ele>914</ele>
        <time>2021-09-04T08:16:13Z</time>
      </trkpt>
      <trkpt lat="44.86557" lon="5.1839">
        <ele>920</ele>
        <time>2021-09-04T08:16:42Z</time>
      </trkpt>
      <trkpt lat="44.865" lon="5.18369">
        <ele>937</ele>
        <time>2021-09-04T08:18:00Z</time>
      </trkpt>
      <trkpt lat="44.86414" lon="5.18362">
        <ele>953</ele>
        <time>2021-09-04T08:19:55Z</time>
      </trkpt>
      <trkpt lat="44.86326" lon="5.18351">
        <ele>965</ele>
        <time>2021-09-04T08:21:53Z</time>
      </trkpt>
      <trkpt lat="44.86213" lon="5.18317">
        <ele>980</ele>
        <time>2021-09-04T08:24:27Z</time>
      </trkpt>
      <trkpt lat="44.86191" lon="5.18305">
        <ele>984</ele>
        <time>2021-09-04T08:24:59Z</time>
      </trkpt>
      <trkpt lat="44.86192" lon="5.18298">
        <ele>985</ele>
        <time>2021-09-04T08:25:06Z</time>
      </trkpt>
      <trkpt lat="44.86251" lon="5.18274">
        <ele>988</ele>
        <time>2021-09-04T08:26:28Z</time>
      </trkpt>
      <trkpt lat="44.86297" lon="5.18246">
        <ele>992</ele>
        <time>2021-09-04T08:27:34Z</time>
      </trkpt>
      <trkpt lat="44.86356" lon="5.18216">
        <ele>994</ele>
        <time>2021-09-04T08:28:58Z</time>
      </trkpt>
      <trkpt lat="44.8633" lon="5.18205">
        <ele>998</ele>
        <time>2021-09-04T08:29:34Z</time>
      </trkpt>
      <trkpt lat="44.86304" lon="5.18196">
        <ele>1001</ele>
        <time>2021-09-04T08:30:10Z</time>
      </trkpt>
      <trkpt lat="44.86263" lon="5.18197">
        <ele>1003</ele>
        <time>2021-09-04T08:31:05Z</time>
      </trkpt>
      <trkpt lat="44.86233" lon="5.1819">
        <ele>1006</ele>
        <time>2021-09-04T08:31:45Z</time>
      </trkpt>
      <trkpt lat="44.86207" lon="5.18178">
        <ele>1009</ele>
        <time>2021-09-04T08:32:22Z</time>
      </trkpt>
      <trkpt lat="44.86197" lon="5.1817">
        <ele>1011</ele>
        <time>2021-09-04T08:32:37Z</time>
      </trkpt>
      <trkpt lat="44.86171" lon="5.1816">
        <ele>1013</ele>
        <time>2021-09-04T08:33:13Z</time>
      </trkpt>
      <trkpt lat="44.8615" lon="5.18158">
        <ele>1012</ele>
        <time>2021-09-04T08:33:41Z</time>
      </trkpt>
      <trkpt lat="44.86132" lon="5.18161">
        <ele>1010</ele>
        <time>2021-09-04T08:34:05Z</time>
      </trkpt>
      <trkpt lat="44.86103" lon="5.18155">
        <ele>1007</ele>
        <time>2021-09-04T08:34:45Z</time>
      </trkpt>
      <trkpt lat="44.86068" lon="5.18136">
        <ele>1003</ele>
        <time>2021-09-04T08:35:35Z</time>
      </trkpt>
      <trkpt lat="44.86046" lon="5.18119">
        <ele>1001</ele>
        <time>2021-09-04T08:36:08Z</time>
      </trkpt>
      <trkpt lat="44.86037" lon="5.18123">
        <ele>999</ele>
        <time>2021-09-04T08:36:21Z</time>
      </trkpt>
      <trkpt lat="44.86015" lon="5.18124">
        <ele>996</ele>
        <time>2021-09-04T08:36:50Z</time>
      </trkpt>
      <trkpt lat="44.86" lon="5.18128">
        <ele>994</ele>
        <time>2021-09-04T08:37:10Z</time>
      </trkpt>
      <trkpt lat="44.85967" lon="5.18128">
        <ele>993</ele>
        <time>2021-09-04T08:37:54Z</time>
      </trkpt>
      <trkpt lat="44.85912" lon="5.18133">
        <ele>991</ele>
        <time>2021-09-04T08:39:08Z</time>
      </trkpt>
      <trkpt lat="44.85875" lon="5.18149">
        <ele>989</ele>
        <time>2021-09-04T08:40:00Z</time>
      </trkpt>
      <trkpt lat="44.85816" lon="5.18185">
        <ele>980</ele>
        <time>2021-09-04T08:41:25Z</time>
      </trkpt>
      <trkpt lat="44.85753" lon="5.18235">
        <ele>962</ele>
        <time>2021-09-04T08:43:02Z</time>
      </trkpt>
      <trkpt lat="44.85734" lon="5.18256">
        <ele>955</ele>
        <time>2021-09-04T08:43:34Z</time>
      </trkpt>
      <trkpt lat="44.85664" lon="5.18295">
        <ele>944</ele>
        <time>2021-09-04T08:45:14Z</time>
      </trkpt>
      <trkpt lat="44.85611" lon="5.18331">
        <ele>930</ele>
        <time>2021-09-04T08:46:33Z</time>
      </trkpt>
      <trkpt lat="44.85656" lon="5.18395">
        <ele>905</ele>
        <time>2021-09-04T08:47:58Z</time>
      </trkpt>
      <trkpt lat="44.85667" lon="5.18407">
        <ele>900</ele>
        <time>2021-09-04T08:48:17Z</time>
      </trkpt>
      <trkpt lat="44.85667" lon="5.18412">
        <ele>898</ele>
        <time>2021-09-04T08:48:22Z</time>
      </trkpt>
      <trkpt lat="44.85633" lon="5.18427">
        <ele>891</ele>
        <time>2021-09-04T08:49:09Z</time>
      </trkpt>
      <trkpt lat="44.85604" lon="5.18436">
        <ele>886</ele>
        <time>2021-09-04T08:49:49Z</time>
      </trkpt>
      <trkpt lat="44.85579" lon="5.18453">
        <ele>877</ele>
        <time>2021-09-04T08:50:26Z</time>
      </trkpt>
      <trkpt lat="44.85538" lon="5.18497">
        <ele>858</ele>
        <time>2021-09-04T08:51:34Z</time>
      </trkpt>
      <trkpt lat="44.8549" lon="5.18537">
        <ele>843</ele>
        <time>2021-09-04T08:52:49Z</time>
      </trkpt>
      <trkpt lat="44.85448" lon="5.18579">
        <ele>825</ele>
        <time>2021-09-04T08:53:58Z</time>
      </trkpt>
      <trkpt lat="44.85404" lon="5.186">
        <ele>814</ele>
        <time>2021-09-04T08:55:00Z</time>
      </trkpt>
      <trkpt lat="44.85346" lon="5.18581">
        <ele>817</ele>
        <time>2021-09-04T08:56:19Z</time>
      </trkpt>
      <trkpt lat="44.85308" lon="5.18641">
        <ele>791</ele>
        <time>2021-09-04T08:57:35Z</time>
      </trkpt>
      <trkpt lat="44.85281" lon="5.18651">
        <ele>784</ele>
        <time>2021-09-04T08:58:12Z</time>
      </trkpt>
      <trkpt lat="44.85264" lon="5.1866">
        <ele>778</ele>
        <time>2021-09-04T08:58:37Z</time>
      </trkpt>
      <trkpt lat="44.85246" lon="5.18663">
        <ele>775</ele>
        <time>2021-09-04T08:59:01Z</time>
      </trkpt>
      <trkpt lat="44.85243" lon="5.18666">
        <ele>774</ele>
        <time>2021-09-04T08:59:06Z</time>
      </trkpt>
      <trkpt lat="44.85246" lon="5.18674">
        <ele>771</ele>
        <time>2021-09-04T08:59:14Z</time>
      </trkpt>
      <trkpt lat="44.85232" lon="5.18675">
        <ele>770</ele>
        <time>2021-09-04T08:59:33Z</time>
      </trkpt>
      <trkpt lat="44.85187" lon="5.18688">
        <ele>762</ele>
        <time>2021-09-04T09:00:34Z</time>
      </trkpt>
      <trkpt lat="44.8518" lon="5.18702">
        <ele>757</ele>
        <time>2021-09-04T09:00:50Z</time>
      </trkpt>
      <trkpt lat="44.85169" lon="5.18704">
        <ele>755</ele>
        <time>2021-09-04T09:01:05Z</time>
      </trkpt>
      <trkpt lat="44.85165" lon="5.18707">
        <ele>754</ele>
        <time>2021-09-04T09:01:11Z</time>
      </trkpt>
      <trkpt lat="44.85098" lon="5.18715">
        <ele>747</ele>
        <time>2021-09-04T09:02:41Z</time>
      </trkpt>
      <trkpt lat="44.85091" lon="5.18713">
        <ele>747</ele>
        <time>2021-09-04T09:02:51Z</time>
      </trkpt>
      <trkpt lat="44.85082" lon="5.18706">
        <ele>749</ele>
        <time>2021-09-04T09:03:04Z</time>
      </trkpt>
      <trkpt lat="44.8507" lon="5.18727">
        <ele>741</ele>
        <time>2021-09-04T09:03:30Z</time>
      </trkpt>
      <trkpt lat="44.85005" lon="5.18717">
        <ele>741</ele>
        <time>2021-09-04T09:04:57Z</time>
      </trkpt>
      <trkpt lat="44.84764" lon="5.18853">
        <ele>684</ele>
        <time>2021-09-04T09:10:43Z</time>
      </trkpt>
      <trkpt lat="44.8475" lon="5.18857">
        <ele>681</ele>
        <time>2021-09-04T09:11:03Z</time>
      </trkpt>
      <trkpt lat="44.84739" lon="5.18856">
        <ele>679</ele>
        <time>2021-09-04T09:11:17Z</time>
      </trkpt>
      <trkpt lat="44.84713" lon="5.18843">
        <ele>679</ele>
        <time>2021-09-04T09:11:54Z</time>
      </trkpt>
      <trkpt lat="44.84678" lon="5.18841">
        <ele>674</ele>
        <time>2021-09-04T09:12:41Z</time>
      </trkpt>
      <trkpt lat="44.84627" lon="5.18867">
        <ele>665</ele>
        <time>2021-09-04T09:13:53Z</time>
      </trkpt>
      <trkpt lat="44.84599" lon="5.1887">
        <ele>664</ele>
        <time>2021-09-04T09:14:31Z</time>
      </trkpt>
      <trkpt lat="44.84573" lon="5.18851">
        <ele>669</ele>
        <time>2021-09-04T09:15:10Z</time>
      </trkpt>
      <trkpt lat="44.84552" lon="5.18846">
        <ele>669</ele>
        <time>2021-09-04T09:15:38Z</time>
      </trkpt>
      <trkpt lat="44.8454" lon="5.18845">
        <ele>669</ele>
        <time>2021-09-04T09:15:54Z</time>
      </trkpt>
      <trkpt lat="44.84516" lon="5.18849">
        <ele>668</ele>
        <time>2021-09-04T09:16:26Z</time>
      </trkpt>
      <trkpt lat="44.84506" lon="5.18848">
        <ele>668</ele>
        <time>2021-09-04T09:16:40Z</time>
      </trkpt>
      <trkpt lat="44.84496" lon="5.18843">
        <ele>668</ele>
        <time>2021-09-04T09:16:54Z</time>
      </trkpt>
      <trkpt lat="44.84482" lon="5.18831">
        <ele>667</ele>
        <time>2021-09-04T09:17:16Z</time>
      </trkpt>
      <trkpt lat="44.8446" lon="5.18806">
        <ele>672</ele>
        <time>2021-09-04T09:17:54Z</time>
      </trkpt>
      <trkpt lat="44.8444" lon="5.188">
        <ele>671</ele>
        <time>2021-09-04T09:18:21Z</time>
      </trkpt>
      <trkpt lat="44.84421" lon="5.18798">
        <ele>670</ele>
        <time>2021-09-04T09:18:46Z</time>
      </trkpt>
      <trkpt lat="44.84382" lon="5.18803">
        <ele>667</ele>
        <time>2021-09-04T09:19:39Z</time>
      </trkpt>
      <trkpt lat="44.84351" lon="5.18815">
        <ele>663</ele>
        <time>2021-09-04T09:20:21Z</time>
      </trkpt>
      <trkpt lat="44.84269" lon="5.18866">
        <ele>644</ele>
        <time>2021-09-04T09:22:21Z</time>
      </trkpt>
      <trkpt lat="44.84247" lon="5.18875">
        <ele>639</ele>
        <time>2021-09-04T09:22:52Z</time>
      </trkpt>
      <trkpt lat="44.84227" lon="5.1887">
        <ele>635</ele>
        <time>2021-09-04T09:23:19Z</time>
      </trkpt>
      <trkpt lat="44.84218" lon="5.18861">
        <ele>635</ele>
        <time>2021-09-04T09:23:33Z</time>
      </trkpt>
      <trkpt lat="44.84227" lon="5.18825">
        <ele>649</ele>
        <time>2021-09-04T09:24:10Z</time>
      </trkpt>
      <trkpt lat="44.84226" lon="5.18816">
        <ele>654</ele>
        <time>2021-09-04T09:24:18Z</time>
      </trkpt>
      <trkpt lat="44.84221" lon="5.18809">
        <ele>657</ele>
        <time>2021-09-04T09:24:28Z</time>
      </trkpt>
      <trkpt lat="44.84203" lon="5.18801">
        <ele>659</ele>
        <time>2021-09-04T09:24:53Z</time>
      </trkpt>
      <trkpt lat="44.84194" lon="5.18801">
        <ele>658</ele>
        <time>2021-09-04T09:25:05Z</time>
      </trkpt>
      <trkpt lat="44.84176" lon="5.18809">
        <ele>649</ele>
        <time>2021-09-04T09:25:30Z</time>
      </trkpt>
      <trkpt lat="44.84155" lon="5.18838">
        <ele>631</ele>
        <time>2021-09-04T09:26:09Z</time>
      </trkpt>
      <trkpt lat="44.84157" lon="5.18844">
        <ele>628</ele>
        <time>2021-09-04T09:26:15Z</time>
      </trkpt>
      <trkpt lat="44.8417" lon="5.18846">
        <ele>625</ele>
        <time>2021-09-04T09:26:33Z</time>
      </trkpt>
      <trkpt lat="44.84174" lon="5.18854">
        <ele>624</ele>
        <time>2021-09-04T09:26:42Z</time>
      </trkpt>
      <trkpt lat="44.84168" lon="5.18864">
        <ele>620</ele>
        <time>2021-09-04T09:26:55Z</time>
      </trkpt>
      <trkpt lat="44.84164" lon="5.18866">
        <ele>620</ele>
        <time>2021-09-04T09:27:00Z</time>
      </trkpt>
      <trkpt lat="44.84158" lon="5.18864">
        <ele>622</ele>
        <time>2021-09-04T09:27:08Z</time>
      </trkpt>
      <trkpt lat="44.84146" lon="5.18871">
        <ele>623</ele>
        <time>2021-09-04T09:27:26Z</time>
      </trkpt>
      <trkpt lat="44.84131" lon="5.18889">
        <ele>619</ele>
        <time>2021-09-04T09:27:52Z</time>
      </trkpt>
      <trkpt lat="44.84124" lon="5.18892">
        <ele>619</ele>
        <time>2021-09-04T09:28:02Z</time>
      </trkpt>
      <trkpt lat="44.84123" lon="5.18898">
        <ele>616</ele>
        <time>2021-09-04T09:28:08Z</time>
      </trkpt>
      <trkpt lat="44.84073" lon="5.18937">
        <ele>613</ele>
        <time>2021-09-04T09:29:24Z</time>
      </trkpt>
      <trkpt lat="44.84031" lon="5.18944">
        <ele>624</ele>
        <time>2021-09-04T09:30:20Z</time>
      </trkpt>
      <trkpt lat="44.84011" lon="5.18939">
        <ele>630</ele>
        <time>2021-09-04T09:30:47Z</time>
      </trkpt>
      <trkpt lat="44.83949" lon="5.18887">
        <ele>627</ele>
        <time>2021-09-04T09:32:24Z</time>
      </trkpt>
      <trkpt lat="44.83931" lon="5.18884">
        <ele>618</ele>
        <time>2021-09-04T09:32:48Z</time>
      </trkpt>
      <trkpt lat="44.83906" lon="5.18887">
        <ele>609</ele>
        <time>2021-09-04T09:33:21Z</time>
      </trkpt>
      <trkpt lat="44.83883" lon="5.18896">
        <ele>607</ele>
        <time>2021-09-04T09:33:53Z</time>
      </trkpt>
      <trkpt lat="44.83866" lon="5.18893">
        <ele>608</ele>
        <time>2021-09-04T09:34:16Z</time>
      </trkpt>
      <trkpt lat="44.83844" lon="5.18864">
        <ele>601</ele>
        <time>2021-09-04T09:34:56Z</time>
      </trkpt>
      <trkpt lat="44.83808" lon="5.18704">
        <ele>594</ele>
        <time>2021-09-04T09:37:35Z</time>
      </trkpt>
      <trkpt lat="44.83798" lon="5.18672">
        <ele>600</ele>
        <time>2021-09-04T09:38:08Z</time>
      </trkpt>
      <trkpt lat="44.8379" lon="5.18661">
        <ele>600</ele>
        <time>2021-09-04T09:38:23Z</time>
      </trkpt>
      <trkpt lat="44.83779" lon="5.18654">
        <ele>598</ele>
        <time>2021-09-04T09:38:39Z</time>
      </trkpt>
      <trkpt lat="44.83757" lon="5.18652">
        <ele>586</ele>
        <time>2021-09-04T09:39:09Z</time>
      </trkpt>
      <trkpt lat="44.83698" lon="5.1869">
        <ele>574</ele>
        <time>2021-09-04T09:40:35Z</time>
      </trkpt>
      <trkpt lat="44.83715" lon="5.18736">
        <ele>571</ele>
        <time>2021-09-04T09:41:24Z</time>
      </trkpt>
      <trkpt lat="44.83714" lon="5.18743">
        <ele>571</ele>
        <time>2021-09-04T09:41:31Z</time>
      </trkpt>
      <trkpt lat="44.83685" lon="5.18763">
        <ele>572</ele>
        <time>2021-09-04T09:42:14Z</time>
      </trkpt>
      <trkpt lat="44.83621" lon="5.18798">
        <ele>573</ele>
        <time>2021-09-04T09:43:46Z</time>
      </trkpt>
      <trkpt lat="44.83594" lon="5.18823">
        <ele>570</ele>
        <time>2021-09-04T09:44:29Z</time>
      </trkpt>
      <trkpt lat="44.83561" lon="5.18886">
        <ele>576</ele>
        <time>2021-09-04T09:45:43Z</time>
      </trkpt>
      <trkpt lat="44.83433" lon="5.19043">
        <ele>578</ele>
        <time>2021-09-04T09:49:29Z</time>
      </trkpt>
      <trkpt lat="44.8342" lon="5.19065">
        <ele>576</ele>
        <time>2021-09-04T09:49:56Z</time>
      </trkpt>
      <trkpt lat="44.83409" lon="5.19102">
        <ele>582</ele>
        <time>2021-09-04T09:50:34Z</time>
      </trkpt>
      <trkpt lat="44.83394" lon="5.19138">
        <ele>591</ele>
        <time>2021-09-04T09:51:14Z</time>
      </trkpt>
      <trkpt lat="44.83367" lon="5.1917">
        <ele>594</ele>
        <time>2021-09-04T09:52:01Z</time>
      </trkpt>
      <trkpt lat="44.83328" lon="5.19202">
        <ele>595</ele>
        <time>2021-09-04T09:53:01Z</time>
      </trkpt>
      <trkpt lat="44.83287" lon="5.19224">
        <ele>595</ele>
        <time>2021-09-04T09:54:00Z</time>
      </trkpt>
      <trkpt lat="44.83275" lon="5.19236">
        <ele>595</ele>
        <time>2021-09-04T09:54:19Z</time>
      </trkpt>
      <trkpt lat="44.83249" lon="5.19283">
        <ele>601</ele>
        <time>2021-09-04T09:55:16Z</time>
      </trkpt>
      <trkpt lat="44.83223" lon="5.19313">
        <ele>602</ele>
        <time>2021-09-04T09:56:01Z</time>
      </trkpt>
      <trkpt lat="44.83196" lon="5.19365">
        <ele>607</ele>
        <time>2021-09-04T09:57:02Z</time>
      </trkpt>
      <trkpt lat="44.83164" lon="5.19399">
        <ele>607</ele>
        <time>2021-09-04T09:57:55Z</time>
      </trkpt>
      <trkpt lat="44.83143" lon="5.19409">
        <ele>608</ele>
        <time>2021-09-04T09:58:25Z</time>
      </trkpt>
      <trkpt lat="44.83112" lon="5.19399">
        <ele>603</ele>
        <time>2021-09-04T09:59:07Z</time>
      </trkpt>
      <trkpt lat="44.83064" lon="5.19402">
        <ele>601</ele>
        <time>2021-09-04T10:00:11Z</time>
      </trkpt>
      <trkpt lat="44.83038" lon="5.19411">
        <ele>602</ele>
        <time>2021-09-04T10:00:47Z</time>
      </trkpt>
      <trkpt lat="44.8303" lon="5.19409">
        <ele>601</ele>
        <time>2021-09-04T10:00:58Z</time>
      </trkpt>
      <trkpt lat="44.83009" lon="5.19413">
        <ele>600</ele>
        <time>2021-09-04T10:01:26Z</time>
      </trkpt>
      <trkpt lat="44.8299" lon="5.19432">
        <ele>601</ele>
        <time>2021-09-04T10:01:57Z</time>
      </trkpt>
      <trkpt lat="44.82962" lon="5.19481">
        <ele>603</ele>
        <time>2021-09-04T10:02:57Z</time>
      </trkpt>
      <trkpt lat="44.82929" lon="5.19523">
        <ele>600</ele>
        <time>2021-09-04T10:03:56Z</time>
      </trkpt>
      <trkpt lat="44.82923" lon="5.19527">
        <ele>598</ele>
        <time>2021-09-04T10:04:05Z</time>
      </trkpt>
      <trkpt lat="44.82915" lon="5.19528">
        <ele>597</ele>
        <time>2021-09-04T10:04:16Z</time>
      </trkpt>
      <trkpt lat="44.82895" lon="5.19522">
        <ele>591</ele>
        <time>2021-09-04T10:04:43Z</time>
      </trkpt>
      <trkpt lat="44.82872" lon="5.19509">
        <ele>583</ele>
        <time>2021-09-04T10:05:16Z</time>
      </trkpt>
      <trkpt lat="44.82866" lon="5.19511">
        <ele>582</ele>
        <time>2021-09-04T10:05:24Z</time>
      </trkpt>
      <trkpt lat="44.82863" lon="5.19517">
        <ele>582</ele>
        <time>2021-09-04T10:05:31Z</time>
      </trkpt>
      <trkpt lat="44.82851" lon="5.19512">
        <ele>578</ele>
        <time>2021-09-04T10:05:48Z</time>
      </trkpt>
      <trkpt lat="44.8284" lon="5.19528">
        <ele>578</ele>
        <time>2021-09-04T10:06:09Z</time>
      </trkpt>
      <trkpt lat="44.82822" lon="5.19545">
        <ele>574</ele>
        <time>2021-09-04T10:06:38Z</time>
      </trkpt>
      <trkpt lat="44.82791" lon="5.19565">
        <ele>567</ele>
        <time>2021-09-04T10:07:23Z</time>
      </trkpt>
      <trkpt lat="44.82773" lon="5.19572">
        <ele>563</ele>
        <time>2021-09-04T10:07:48Z</time>
      </trkpt>
      <trkpt lat="44.82765" lon="5.19579">
        <ele>562</ele>
        <time>2021-09-04T10:08:01Z</time>
      </trkpt>
      <trkpt lat="44.82764" lon="5.19575">
        <ele>561</ele>
        <time>2021-09-04T10:08:05Z</time>
      </trkpt>
      <trkpt lat="44.82773" lon="5.19565">
        <ele>561</ele>
        <time>2021-09-04T10:08:20Z</time>
      </trkpt>
      <trkpt lat="44.82791" lon="5.19551">
        <ele>563</ele>
        <time>2021-09-04T10:08:47Z</time>
      </trkpt>
      <trkpt lat="44.82807" lon="5.19527">
        <ele>564</ele>
        <time>2021-09-04T10:09:19Z</time>
      </trkpt>
      <trkpt lat="44.82824" lon="5.19495">
        <ele>567</ele>
        <time>2021-09-04T10:09:57Z</time>
      </trkpt>
      <trkpt lat="44.82826" lon="5.19482">
        <ele>567</ele>
        <time>2021-09-04T10:10:09Z</time>
      </trkpt>
      <trkpt lat="44.82821" lon="5.19432">
        <ele>562</ele>
        <time>2021-09-04T10:10:57Z</time>
      </trkpt>
      <trkpt lat="44.8281" lon="5.19404">
        <ele>553</ele>
        <time>2021-09-04T10:11:27Z</time>
      </trkpt>
      <trkpt lat="44.82795" lon="5.19379">
        <ele>542</ele>
        <time>2021-09-04T10:11:58Z</time>
      </trkpt>
      <trkpt lat="44.82771" lon="5.1936">
        <ele>532</ele>
        <time>2021-09-04T10:12:35Z</time>
      </trkpt>
      <trkpt lat="44.82769" lon="5.19349">
        <ele>530</ele>
        <time>2021-09-04T10:12:46Z</time>
      </trkpt>
      <trkpt lat="44.82765" lon="5.19346">
        <ele>529</ele>
        <time>2021-09-04T10:12:52Z</time>
      </trkpt>
      <trkpt lat="44.82758" lon="5.1936">
        <ele>527</ele>
        <time>2021-09-04T10:13:08Z</time>
      </trkpt>
      <trkpt lat="44.82759" lon="5.19385">
        <ele>527</ele>
        <time>2021-09-04T10:13:32Z</time>
      </trkpt>
      <trkpt lat="44.82768" lon="5.19412">
        <ele>532</ele>
        <time>2021-09-04T10:14:00Z</time>
      </trkpt>
      <trkpt lat="44.82776" lon="5.19428">
        <ele>537</ele>
        <time>2021-09-04T10:14:18Z</time>
      </trkpt>
      <trkpt lat="44.8278" lon="5.19454">
        <ele>541</ele>
        <time>2021-09-04T10:14:44Z</time>
      </trkpt>
      <trkpt lat="44.82778" lon="5.19469">
        <ele>542</ele>
        <time>2021-09-04T10:14:58Z</time>
      </trkpt>
      <trkpt lat="44.82773" lon="5.19475">
        <ele>540</ele>
        <time>2021-09-04T10:15:07Z</time>
      </trkpt>
      <trkpt lat="44.82773" lon="5.19453">
        <ele>538</ele>
        <time>2021-09-04T10:15:28Z</time>
      </trkpt>
      <trkpt lat="44.82767" lon="5.19438">
        <ele>533</ele>
        <time>2021-09-04T10:15:44Z</time>
      </trkpt>
      <trkpt lat="44.82767" lon="5.19462">
        <ele>535</ele>
        <time>2021-09-04T10:16:07Z</time>
      </trkpt>
      <trkpt lat="44.82764" lon="5.19464">
        <ele>534</ele>
        <time>2021-09-04T10:16:11Z</time>
      </trkpt>
      <trkpt lat="44.82761" lon="5.19461">
        <ele>532</ele>
        <time>2021-09-04T10:16:16Z</time>
      </trkpt>
      <trkpt lat="44.82758" lon="5.19449">
        <ele>529</ele>
        <time>2021-09-04T10:16:28Z</time>
      </trkpt>
      <trkpt lat="44.8275" lon="5.19455">
        <ele>526</ele>
        <time>2021-09-04T10:16:40Z</time>
      </trkpt>
      <trkpt lat="44.82745" lon="5.19463">
        <ele>525</ele>
        <time>2021-09-04T10:16:50Z</time>
      </trkpt>
      <trkpt lat="44.82734" lon="5.19452">
        <ele>520</ele>
        <time>2021-09-04T10:17:08Z</time>
      </trkpt>
      <trkpt lat="44.82728" lon="5.1946">
        <ele>519</ele>
        <time>2021-09-04T10:17:19Z</time>
      </trkpt>
      <trkpt lat="44.82725" lon="5.19441">
        <ele>516</ele>
        <time>2021-09-04T10:17:38Z</time>
      </trkpt>
      <trkpt lat="44.82719" lon="5.19453">
        <ele>516</ele>
        <time>2021-09-04T10:17:51Z</time>
      </trkpt>
      <trkpt lat="44.8272" lon="5.1947">
        <ele>518</ele>
        <time>2021-09-04T10:18:08Z</time>
      </trkpt>
      <trkpt lat="44.82718" lon="5.19473">
        <ele>518</ele>
        <time>2021-09-04T10:18:12Z</time>
      </trkpt>
      <trkpt lat="44.82712" lon="5.1947">
        <ele>515</ele>
        <time>2021-09-04T10:18:20Z</time>
      </trkpt>
      <trkpt lat="44.82712" lon="5.1946">
        <ele>514</ele>
        <time>2021-09-04T10:18:29Z</time>
      </trkpt>
      <trkpt lat="44.82702" lon="5.19454">
        <ele>511</ele>
        <time>2021-09-04T10:18:44Z</time>
      </trkpt>
      <trkpt lat="44.82694" lon="5.19429">
        <ele>505</ele>
        <time>2021-09-04T10:19:10Z</time>
      </trkpt>
      <trkpt lat="44.82693" lon="5.19416">
        <ele>504</ele>
        <time>2021-09-04T10:19:22Z</time>
      </trkpt>
      <trkpt lat="44.82689" lon="5.1941">
        <ele>504</ele>
        <time>2021-09-04T10:19:30Z</time>
      </trkpt>
      <trkpt lat="44.82684" lon="5.19409">
        <ele>502</ele>
        <time>2021-09-04T10:19:37Z</time>
      </trkpt>
      <trkpt lat="44.82673" lon="5.19398">
        <ele>502</ele>
        <time>2021-09-04T10:19:55Z</time>
      </trkpt>
      <trkpt lat="44.82668" lon="5.19386">
        <ele>503</ele>
        <time>2021-09-04T10:20:08Z</time>
      </trkpt>
      <trkpt lat="44.82667" lon="5.19335">
        <ele>517</ele>
        <time>2021-09-04T10:20:56Z</time>
      </trkpt>
      <trkpt lat="44.8268" lon="5.1929">
        <ele>523</ele>
        <time>2021-09-04T10:21:42Z</time>
      </trkpt>
      <trkpt lat="44.82698" lon="5.19263">
        <ele>524</ele>
        <time>2021-09-04T10:22:17Z</time>
      </trkpt>
      <trkpt lat="44.82689" lon="5.19255">
        <ele>526</ele>
        <time>2021-09-04T10:22:32Z</time>
      </trkpt>
      <trkpt lat="44.82689" lon="5.19251">
        <ele>526</ele>
        <time>2021-09-04T10:22:35Z</time>
      </trkpt>
      <trkpt lat="44.82704" lon="5.19235">
        <ele>527</ele>
        <time>2021-09-04T10:23:00Z</time>
      </trkpt>
      <trkpt lat="44.82714" lon="5.1923">
        <ele>527</ele>
        <time>2021-09-04T10:23:15Z</time>
      </trkpt>
      <trkpt lat="44.82715" lon="5.19222">
        <ele>528</ele>
        <time>2021-09-04T10:23:22Z</time>
      </trkpt>
      <trkpt lat="44.82725" lon="5.19219">
        <ele>527</ele>
        <time>2021-09-04T10:23:36Z</time>
      </trkpt>
      <trkpt lat="44.82728" lon="5.19221">
        <ele>526</ele>
        <time>2021-09-04T10:23:40Z</time>
      </trkpt>
      <trkpt lat="44.82743" lon="5.19218">
        <ele>525</ele>
        <time>2021-09-04T10:24:01Z</time>
      </trkpt>
      <trkpt lat="44.82751" lon="5.19234">
        <ele>521</ele>
        <time>2021-09-04T10:24:19Z</time>
      </trkpt>
      <trkpt lat="44.82754" lon="5.19236">
        <ele>521</ele>
        <time>2021-09-04T10:24:24Z</time>
      </trkpt>
      <trkpt lat="44.82751" lon="5.19234">
        <ele>521</ele>
        <time>2021-09-04T10:24:28Z</time>
      </trkpt>
      <trkpt lat="44.82743" lon="5.19218">
        <ele>525</ele>
        <time>2021-09-04T10:24:47Z</time>
      </trkpt>
      <trkpt lat="44.82728" lon="5.19221">
        <ele>526</ele>
        <time>2021-09-04T10:25:07Z</time>
      </trkpt>
      <trkpt lat="44.82725" lon="5.19219">
        <ele>527</ele>
        <time>2021-09-04T10:25:11Z</time>
      </trkpt>
      <trkpt lat="44.82715" lon="5.19222">
        <ele>528</ele>
        <time>2021-09-04T10:25:25Z</time>
      </trkpt>
      <trkpt lat="44.82714" lon="5.1923">
        <ele>527</ele>
        <time>2021-09-04T10:25:32Z</time>
      </trkpt>
      <trkpt lat="44.82704" lon="5.19235">
        <ele>527</ele>
        <time>2021-09-04T10:25:47Z</time>
      </trkpt>
      <trkpt lat="44.82689" lon="5.19251">
        <ele>526</ele>
        <time>2021-09-04T10:26:12Z</time>
      </trkpt>
      <trkpt lat="44.82689" lon="5.19255">
        <ele>526</ele>
        <time>2021-09-04T10:26:16Z</time>
      </trkpt>
      <trkpt lat="44.82698" lon="5.19263">
        <ele>524</ele>
        <time>2021-09-04T10:26:30Z</time>
      </trkpt>
      <trkpt lat="44.8268" lon="5.1929">
        <ele>523</ele>
        <time>2021-09-04T10:27:05Z</time>
      </trkpt>
      <trkpt lat="44.82667" lon="5.19335">
        <ele>517</ele>
        <time>2021-09-04T10:27:51Z</time>
      </trkpt>
      <trkpt lat="44.82668" lon="5.19386">
        <ele>503</ele>
        <time>2021-09-04T10:28:39Z</time>
      </trkpt>
      <trkpt lat="44.82673" lon="5.19398">
        <ele>502</ele>
        <time>2021-09-04T10:28:52Z</time>
      </trkpt>
      <trkpt lat="44.82684" lon="5.19409">
        <ele>502</ele>
        <time>2021-09-04T10:29:10Z</time>
      </trkpt>
      <trkpt lat="44.82689" lon="5.1941">
        <ele>504</ele>
        <time>2021-09-04T10:29:17Z</time>
      </trkpt>
      <trkpt lat="44.82693" lon="5.19416">
        <ele>504</ele>
        <time>2021-09-04T10:29:25Z</time>
      </trkpt>
      <trkpt lat="44.82694" lon="5.19429">
        <ele>505</ele>
        <time>2021-09-04T10:29:37Z</time>
      </trkpt>
      <trkpt lat="44.82702" lon="5.19454">
        <ele>511</ele>
        <time>2021-09-04T10:30:03Z</time>
      </trkpt>
      <trkpt lat="44.82712" lon="5.1946">
        <ele>514</ele>
        <time>2021-09-04T10:30:18Z</time>
      </trkpt>
      <trkpt lat="44.82712" lon="5.1947">
        <ele>515</ele>
        <time>2021-09-04T10:30:27Z</time>
      </trkpt>
      <trkpt lat="44.82718" lon="5.19473">
        <ele>518</ele>
        <time>2021-09-04T10:30:36Z</time>
      </trkpt>
      <trkpt lat="44.8272" lon="5.1947">
        <ele>518</ele>
        <time>2021-09-04T10:30:39Z</time>
      </trkpt>
      <trkpt lat="44.82719" lon="5.19453">
        <ele>516</ele>
        <time>2021-09-04T10:30:56Z</time>
      </trkpt>
      <trkpt lat="44.82725" lon="5.19441">
        <ele>516</ele>
        <time>2021-09-04T10:31:10Z</time>
      </trkpt>
      <trkpt lat="44.82728" lon="5.1946">
        <ele>519</ele>
        <time>2021-09-04T10:31:28Z</time>
      </trkpt>
      <trkpt lat="44.82734" lon="5.19452">
        <ele>520</ele>
        <time>2021-09-04T10:31:39Z</time>
      </trkpt>
      <trkpt lat="44.82745" lon="5.19463">
        <ele>525</ele>
        <time>2021-09-04T10:31:57Z</time>
      </trkpt>
      <trkpt lat="44.8275" lon="5.19455">
        <ele>526</ele>
        <time>2021-09-04T10:32:07Z</time>
      </trkpt>
      <trkpt lat="44.82758" lon="5.19449">
        <ele>529</ele>
        <time>2021-09-04T10:32:19Z</time>
      </trkpt>
      <trkpt lat="44.82761" lon="5.19461">
        <ele>532</ele>
        <time>2021-09-04T10:32:31Z</time>
      </trkpt>
      <trkpt lat="44.82764" lon="5.19464">
        <ele>534</ele>
        <time>2021-09-04T10:32:36Z</time>
      </trkpt>
      <trkpt lat="44.82767" lon="5.19462">
        <ele>535</ele>
        <time>2021-09-04T10:32:41Z</time>
      </trkpt>
      <trkpt lat="44.82767" lon="5.19438">
        <ele>533</ele>
        <time>2021-09-04T10:33:03Z</time>
      </trkpt>
      <trkpt lat="44.82773" lon="5.19453">
        <ele>538</ele>
        <time>2021-09-04T10:33:20Z</time>
      </trkpt>
      <trkpt lat="44.82773" lon="5.19475">
        <ele>540</ele>
        <time>2021-09-04T10:33:40Z</time>
      </trkpt>
      <trkpt lat="44.82778" lon="5.19469">
        <ele>542</ele>
        <time>2021-09-04T10:33:49Z</time>
      </trkpt>
      <trkpt lat="44.8278" lon="5.19454">
        <ele>541</ele>
        <time>2021-09-04T10:34:04Z</time>
      </trkpt>
      <trkpt lat="44.82776" lon="5.19428">
        <ele>537</ele>
        <time>2021-09-04T10:34:29Z</time>
      </trkpt>
      <trkpt lat="44.82768" lon="5.19412">
        <ele>532</ele>
        <time>2021-09-04T10:34:47Z</time>
      </trkpt>
      <trkpt lat="44.82759" lon="5.19385">
        <ele>527</ele>
        <time>2021-09-04T10:35:16Z</time>
      </trkpt>
      <trkpt lat="44.82758" lon="5.1936">
        <ele>527</ele>
        <time>2021-09-04T10:35:39Z</time>
      </trkpt>
      <trkpt lat="44.82765" lon="5.19346">
        <ele>529</ele>
        <time>2021-09-04T10:35:55Z</time>
      </trkpt>
      <trkpt lat="44.82769" lon="5.19349">
        <ele>530</ele>
        <time>2021-09-04T10:36:01Z</time>
      </trkpt>
      <trkpt lat="44.82771" lon="5.1936">
        <ele>532</ele>
        <time>2021-09-04T10:36:12Z</time>
      </trkpt>
      <trkpt lat="44.82795" lon="5.19379">
        <ele>542</ele>
        <time>2021-09-04T10:36:49Z</time>
      </trkpt>
      <trkpt lat="44.8281" lon="5.19404">
        <ele>553</ele>
        <time>2021-09-04T10:37:20Z</time>
      </trkpt>
      <trkpt lat="44.82821" lon="5.19432">
        <ele>562</ele>
        <time>2021-09-04T10:37:50Z</time>
      </trkpt>
      <trkpt lat="44.82826" lon="5.19482">
        <ele>567</ele>
        <time>2021-09-04T10:38:38Z</time>
      </trkpt>
      <trkpt lat="44.82824" lon="5.19495">
        <ele>567</ele>
        <time>2021-09-04T10:38:51Z</time>
      </trkpt>
      <trkpt lat="44.82807" lon="5.19527">
        <ele>564</ele>
        <time>2021-09-04T10:39:28Z</time>
      </trkpt>
      <trkpt lat="44.82791" lon="5.19551">
        <ele>563</ele>
        <time>2021-09-04T10:40:00Z</time>
      </trkpt>
      <trkpt lat="44.82773" lon="5.19565">
        <ele>561</ele>
        <time>2021-09-04T10:40:27Z</time>
      </trkpt>
      <trkpt lat="44.82764" lon="5.19575">
        <ele>561</ele>
        <time>2021-09-04T10:40:42Z</time>
      </trkpt>
      <trkpt lat="44.82765" lon="5.19579">
        <ele>562</ele>
        <time>2021-09-04T10:40:46Z</time>
      </trkpt>
      <trkpt lat="44.82773" lon="5.19572">
        <ele>563</ele>
        <time>2021-09-04T10:40:59Z</time>
      </trkpt>
      <trkpt lat="44.82791" lon="5.19565">
        <ele>567</ele>
        <time>2021-09-04T10:41:24Z</time>
      </trkpt>
      <trkpt lat="44.82822" lon="5.19545">
        <ele>574</ele>
        <time>2021-09-04T10:42:09Z</time>
      </trkpt>
      <trkpt lat="44.8284" lon="5.19528">
        <ele>578</ele>
        <time>2021-09-04T10:42:38Z</time>
      </trkpt>
      <trkpt lat="44.82851" lon="5.19512">
        <ele>578</ele>
        <time>2021-09-04T10:42:59Z</time>
      </trkpt>
      <trkpt lat="44.82863" lon="5.19517">
        <ele>582</ele>
        <time>2021-09-04T10:43:16Z</time>
      </trkpt>
      <trkpt lat="44.82866" lon="5.19511">
        <ele>582</ele>
        <time>2021-09-04T10:43:23Z</time>
      </trkpt>
      <trkpt lat="44.82872" lon="5.19509">
        <ele>583</ele>
        <time>2021-09-04T10:43:31Z</time>
      </trkpt>
      <trkpt lat="44.82895" lon="5.19522">
        <ele>591</ele>
        <time>2021-09-04T10:44:04Z</time>
      </trkpt>
      <trkpt lat="44.82915" lon="5.19528">
        <ele>597</ele>
        <time>2021-09-04T10:44:32Z</time>
      </trkpt>
      <trkpt lat="44.82923" lon="5.19527">
        <ele>598</ele>
        <time>2021-09-04T10:44:42Z</time>
      </trkpt>
      <trkpt lat="44.82929" lon="5.19523">
        <ele>600</ele>
        <time>2021-09-04T10:44:51Z</time>
      </trkpt>
      <trkpt lat="44.82962" lon="5.19481">
        <ele>603</ele>
        <time>2021-09-04T10:45:50Z</time>
      </trkpt>
      <trkpt lat="44.8299" lon="5.19432">
        <ele>601</ele>
        <time>2021-09-04T10:46:50Z</time>
      </trkpt>
      <trkpt lat="44.83009" lon="5.19413">
        <ele>600</ele>
        <time>2021-09-04T10:47:21Z</time>
      </trkpt>
      <trkpt lat="44.8303" lon="5.19409">
        <ele>601</ele>
        <time>2021-09-04T10:47:49Z</time>
      </trkpt>
      <trkpt lat="44.83038" lon="5.19411">
        <ele>602</ele>
        <time>2021-09-04T10:48:00Z</time>
      </trkpt>
      <trkpt lat="44.83064" lon="5.19402">
        <ele>601</ele>
        <time>2021-09-04T10:48:36Z</time>
      </trkpt>
      <trkpt lat="44.83112" lon="5.19399">
        <ele>603</ele>
        <time>2021-09-04T10:49:40Z</time>
      </trkpt>
      <trkpt lat="44.83143" lon="5.19409">
        <ele>608</ele>
        <time>2021-09-04T10:50:22Z</time>
      </trkpt>
      <trkpt lat="44.83164" lon="5.19399">
        <ele>607</ele>
        <time>2021-09-04T10:50:52Z</time>
      </trkpt>
      <trkpt lat="44.83196" lon="5.19365">
        <ele>607</ele>
        <time>2021-09-04T10:51:46Z</time>
      </trkpt>
      <trkpt lat="44.83223" lon="5.19313">
        <ele>602</ele>
        <time>2021-09-04T10:52:47Z</time>
      </trkpt>
      <trkpt lat="44.83249" lon="5.19283">
        <ele>601</ele>
        <time>2021-09-04T10:53:31Z</time>
      </trkpt>
      <trkpt lat="44.83275" lon="5.19236">
        <ele>595</ele>
        <time>2021-09-04T10:54:28Z</time>
      </trkpt>
      <trkpt lat="44.83287" lon="5.19224">
        <ele>595</ele>
        <time>2021-09-04T10:54:47Z</time>
      </trkpt>
      <trkpt lat="44.83328" lon="5.19202">
        <ele>595</ele>
        <time>2021-09-04T10:55:46Z</time>
      </trkpt>
      <trkpt lat="44.83367" lon="5.1917">
        <ele>594</ele>
        <time>2021-09-04T10:56:46Z</time>
      </trkpt>
      <trkpt lat="44.83394" lon="5.19138">
        <ele>591</ele>
        <time>2021-09-04T10:57:33Z</time>
      </trkpt>
      <trkpt lat="44.83409" lon="5.19102">
        <ele>582</ele>
        <time>2021-09-04T10:58:13Z</time>
      </trkpt>
      <trkpt lat="44.8342" lon="5.19065">
        <ele>576</ele>
        <time>2021-09-04T10:58:51Z</time>
      </trkpt>
      <trkpt lat="44.83433" lon="5.19043">
        <ele>578</ele>
        <time>2021-09-04T10:59:18Z</time>
      </trkpt>
      <trkpt lat="44.83561" lon="5.18886">
        <ele>576</ele>
        <time>2021-09-04T11:03:04Z</time>
      </trkpt>
      <trkpt lat="44.83594" lon="5.18823">
        <ele>570</ele>
        <time>2021-09-04T11:04:18Z</time>
      </trkpt>
      <trkpt lat="44.83621" lon="5.18798">
        <ele>573</ele>
        <time>2021-09-04T11:05:01Z</time>
      </trkpt>
      <trkpt lat="44.83685" lon="5.18763">
        <ele>572</ele>
        <time>2021-09-04T11:06:33Z</time>
      </trkpt>
      <trkpt lat="44.83714" lon="5.18743">
        <ele>571</ele>
        <time>2021-09-04T11:07:16Z</time>
      </trkpt>
      <trkpt lat="44.83715" lon="5.18736">
        <ele>571</ele>
        <time>2021-09-04T11:07:23Z</time>
      </trkpt>
      <trkpt lat="44.83698" lon="5.1869">
        <ele>574</ele>
        <time>2021-09-04T11:08:12Z</time>
      </trkpt>
      <trkpt lat="44.8367" lon="5.18703">
        <ele>573</ele>
        <time>2021-09-04T11:08:51Z</time>
      </trkpt>
      <trkpt lat="44.8365" lon="5.18707">
        <ele>573</ele>
        <time>2021-09-04T11:09:18Z</time>
      </trkpt>
      <trkpt lat="44.8357" lon="5.18715">
        <ele>578</ele>
        <time>2021-09-04T11:11:05Z</time>
      </trkpt>
      <trkpt lat="44.83527" lon="5.18723">
        <ele>581</ele>
        <time>2021-09-04T11:12:03Z</time>
      </trkpt>
      <trkpt lat="44.83504" lon="5.18743">
        <ele>576</ele>
        <time>2021-09-04T11:12:39Z</time>
      </trkpt>
      <trkpt lat="44.83486" lon="5.18747">
        <ele>579</ele>
        <time>2021-09-04T11:13:04Z</time>
      </trkpt>
      <trkpt lat="44.83465" lon="5.18743">
        <ele>587</ele>
        <time>2021-09-04T11:13:32Z</time>
      </trkpt>
      <trkpt lat="44.8345" lon="5.18755">
        <ele>588</ele>
        <time>2021-09-04T11:13:55Z</time>
      </trkpt>
      <trkpt lat="44.83436" lon="5.18785">
        <ele>584</ele>
        <time>2021-09-04T11:14:29Z</time>
      </trkpt>
      <trkpt lat="44.83393" lon="5.18814">
        <ele>587</ele>
        <time>2021-09-04T11:15:32Z</time>
      </trkpt>
      <trkpt lat="44.83362" lon="5.18848">
        <ele>588</ele>
        <time>2021-09-04T11:16:25Z</time>
      </trkpt>
      <trkpt lat="44.83358" lon="5.18858">
        <ele>588</ele>
        <time>2021-09-04T11:16:36Z</time>
      </trkpt>
      <trkpt lat="44.83294" lon="5.18826">
        <ele>606</ele>
        <time>2021-09-04T11:18:06Z</time>
      </trkpt>
      <trkpt lat="44.8326" lon="5.18813">
        <ele>614</ele>
        <time>2021-09-04T11:18:53Z</time>
      </trkpt>
      <trkpt lat="44.83255" lon="5.18799">
        <ele>617</ele>
        <time>2021-09-04T11:19:08Z</time>
      </trkpt>
      <trkpt lat="44.83219" lon="5.18795">
        <ele>621</ele>
        <time>2021-09-04T11:19:56Z</time>
      </trkpt>
      <trkpt lat="44.83191" lon="5.18779">
        <ele>625</ele>
        <time>2021-09-04T11:20:37Z</time>
      </trkpt>
      <trkpt lat="44.83189" lon="5.18782">
        <ele>625</ele>
        <time>2021-09-04T11:20:41Z</time>
      </trkpt>
      <trkpt lat="44.83191" lon="5.18779">
        <ele>625</ele>
        <time>2021-09-04T11:20:44Z</time>
      </trkpt>
      <trkpt lat="44.83184" lon="5.18768">
        <ele>627</ele>
        <time>2021-09-04T11:20:58Z</time>
      </trkpt>
      <trkpt lat="44.83173" lon="5.18729">
        <ele>636</ele>
        <time>2021-09-04T11:21:38Z</time>
      </trkpt>
      <trkpt lat="44.83142" lon="5.18725">
        <ele>635</ele>
        <time>2021-09-04T11:22:20Z</time>
      </trkpt>
      <trkpt lat="44.83088" lon="5.18679">
        <ele>638</ele>
        <time>2021-09-04T11:23:44Z</time>
      </trkpt>
      <trkpt lat="44.83052" lon="5.18656">
        <ele>643</ele>
        <time>2021-09-04T11:24:37Z</time>
      </trkpt>
      <trkpt lat="44.83027" lon="5.18649">
        <ele>644</ele>
        <time>2021-09-04T11:25:11Z</time>
      </trkpt>
      <trkpt lat="44.82945" lon="5.18638">
        <ele>647</ele>
        <time>2021-09-04T11:27:01Z</time>
      </trkpt>
      <trkpt lat="44.82847" lon="5.18631">
        <ele>657</ele>
        <time>2021-09-04T11:29:11Z</time>
      </trkpt>
      <trkpt lat="44.82822" lon="5.18632">
        <ele>658</ele>
        <time>2021-09-04T11:29:45Z</time>
      </trkpt>
      <trkpt lat="44.82812" lon="5.18638">
        <ele>656</ele>
        <time>2021-09-04T11:29:59Z</time>
      </trkpt>
      <trkpt lat="44.82796" lon="5.18654">
        <ele>652</ele>
        <time>2021-09-04T11:30:26Z</time>
      </trkpt>
      <trkpt lat="44.82783" lon="5.18652">
        <ele>653</ele>
        <time>2021-09-04T11:30:43Z</time>
      </trkpt>
      <trkpt lat="44.82773" lon="5.18647">
        <ele>654</ele>
        <time>2021-09-04T11:30:57Z</time>
      </trkpt>
      <trkpt lat="44.82749" lon="5.18622">
        <ele>660</ele>
        <time>2021-09-04T11:31:37Z</time>
      </trkpt>
      <trkpt lat="44.82734" lon="5.18602">
        <ele>664</ele>
        <time>2021-09-04T11:32:05Z</time>
      </trkpt>
      <trkpt lat="44.82689" lon="5.18575">
        <ele>668</ele>
        <time>2021-09-04T11:33:10Z</time>
      </trkpt>
      <trkpt lat="44.82675" lon="5.1855">
        <ele>672</ele>
        <time>2021-09-04T11:33:40Z</time>
      </trkpt>
      <trkpt lat="44.82667" lon="5.18547">
        <ele>672</ele>
        <time>2021-09-04T11:33:51Z</time>
      </trkpt>
      <trkpt lat="44.82659" lon="5.18554">
        <ele>672</ele>
        <time>2021-09-04T11:34:04Z</time>
      </trkpt>
      <trkpt lat="44.82645" lon="5.18604">
        <ele>667</ele>
        <time>2021-09-04T11:34:54Z</time>
      </trkpt>
      <trkpt lat="44.82636" lon="5.18625">
        <ele>665</ele>
        <time>2021-09-04T11:35:18Z</time>
      </trkpt>
      <trkpt lat="44.82619" lon="5.18635">
        <ele>666</ele>
        <time>2021-09-04T11:35:42Z</time>
      </trkpt>
      <trkpt lat="44.82608" lon="5.18636">
        <ele>668</ele>
        <time>2021-09-04T11:35:57Z</time>
      </trkpt>
      <trkpt lat="44.82549" lon="5.1863">
        <ele>678</ele>
        <time>2021-09-04T11:37:16Z</time>
      </trkpt>
      <trkpt lat="44.82491" lon="5.18638">
        <ele>681</ele>
        <time>2021-09-04T11:38:34Z</time>
      </trkpt>
      <trkpt lat="44.82469" lon="5.18633">
        <ele>682</ele>
        <time>2021-09-04T11:39:03Z</time>
      </trkpt>
      <trkpt lat="44.82457" lon="5.18627">
        <ele>684</ele>
        <time>2021-09-04T11:39:20Z</time>
      </trkpt>
      <trkpt lat="44.82417" lon="5.1859">
        <ele>694</ele>
        <time>2021-09-04T11:40:24Z</time>
      </trkpt>
      <trkpt lat="44.82357" lon="5.18569">
        <ele>694</ele>
        <time>2021-09-04T11:41:47Z</time>
      </trkpt>
      <trkpt lat="44.82335" lon="5.18568">
        <ele>692</ele>
        <time>2021-09-04T11:42:16Z</time>
      </trkpt>
      <trkpt lat="44.82323" lon="5.18557">
        <ele>695</ele>
        <time>2021-09-04T11:42:35Z</time>
      </trkpt>
      <trkpt lat="44.82314" lon="5.18544">
        <ele>698</ele>
        <time>2021-09-04T11:42:52Z</time>
      </trkpt>
      <trkpt lat="44.82302" lon="5.18534">
        <ele>700</ele>
        <time>2021-09-04T11:43:11Z</time>
      </trkpt>
      <trkpt lat="44.82229" lon="5.18513">
        <ele>703</ele>
        <time>2021-09-04T11:44:50Z</time>
      </trkpt>
      <trkpt lat="44.8218" lon="5.18513">
        <ele>702</ele>
        <time>2021-09-04T11:45:56Z</time>
      </trkpt>
      <trkpt lat="44.82155" lon="5.18505">
        <ele>701</ele>
        <time>2021-09-04T11:46:30Z</time>
      </trkpt>
      <trkpt lat="44.82114" lon="5.18455">
        <ele>708</ele>
        <time>2021-09-04T11:47:42Z</time>
      </trkpt>
      <trkpt lat="44.82145" lon="5.18456">
        <ele>713</ele>
        <time>2021-09-04T11:48:24Z</time>
      </trkpt>
      <trkpt lat="44.8213" lon="5.18445">
        <ele>713</ele>
        <time>2021-09-04T11:48:46Z</time>
      </trkpt>
      <trkpt lat="44.82061" lon="5.18271">
        <ele>727</ele>
        <time>2021-09-04T11:51:55Z</time>
      </trkpt>
      <trkpt lat="44.81966" lon="5.18145">
        <ele>735</ele>
        <time>2021-09-04T11:54:49Z</time>
      </trkpt>
      <trkpt lat="44.81961" lon="5.18086">
        <ele>742</ele>
        <time>2021-09-04T11:55:45Z</time>
      </trkpt>
      <trkpt lat="44.81946" lon="5.18046">
        <ele>744</ele>
        <time>2021-09-04T11:56:28Z</time>
      </trkpt>
      <trkpt lat="44.81893" lon="5.17965">
        <ele>740</ele>
        <time>2021-09-04T11:58:12Z</time>
      </trkpt>
      <trkpt lat="44.81901" lon="5.17915">
        <ele>746</ele>
        <time>2021-09-04T11:59:01Z</time>
      </trkpt>
      <trkpt lat="44.81906" lon="5.17843">
        <ele>753</ele>
        <time>2021-09-04T12:00:09Z</time>
      </trkpt>
      <trkpt lat="44.819" lon="5.17784">
        <ele>759</ele>
        <time>2021-09-04T12:01:06Z</time>
      </trkpt>
      <trkpt lat="44.8185" lon="5.17724">
        <ele>753</ele>
        <time>2021-09-04T12:02:33Z</time>
      </trkpt>
      <trkpt lat="44.81833" lon="5.1766">
        <ele>759</ele>
        <time>2021-09-04T12:03:38Z</time>
      </trkpt>
      <trkpt lat="44.81808" lon="5.17637">
        <ele>752</ele>
        <time>2021-09-04T12:04:18Z</time>
      </trkpt>
      <trkpt lat="44.81808" lon="5.17584">
        <ele>757</ele>
        <time>2021-09-04T12:05:08Z</time>
      </trkpt>
      <trkpt lat="44.81803" lon="5.17557">
        <ele>759</ele>
        <time>2021-09-04T12:05:35Z</time>
      </trkpt>
      <trkpt lat="44.81793" lon="5.17535">
        <ele>759</ele>
        <time>2021-09-04T12:05:59Z</time>
      </trkpt>
      <trkpt lat="44.81796" lon="5.17525">
        <ele>762</ele>
        <time>2021-09-04T12:06:10Z</time>
      </trkpt>
      <trkpt lat="44.81795" lon="5.17502">
        <ele>765</ele>
        <time>2021-09-04T12:06:31Z</time>
      </trkpt>
      <trkpt lat="44.81777" lon="5.17407">
        <ele>771</ele>
        <time>2021-09-04T12:08:04Z</time>
      </trkpt>
      <trkpt lat="44.8175" lon="5.17337">
        <ele>772</ele>
        <time>2021-09-04T12:09:20Z</time>
      </trkpt>
      <trkpt lat="44.81734" lon="5.17305">
        <ele>775</ele>
        <time>2021-09-04T12:09:57Z</time>
      </trkpt>
      <trkpt lat="44.81717" lon="5.17291">
        <ele>772</ele>
        <time>2021-09-04T12:10:23Z</time>
      </trkpt>
      <trkpt lat="44.8169" lon="5.17278">
        <ele>766</ele>
        <time>2021-09-04T12:11:01Z</time>
      </trkpt>
      <trkpt lat="44.81675" lon="5.17266">
        <ele>763</ele>
        <time>2021-09-04T12:11:24Z</time>
      </trkpt>
      <trkpt lat="44.81624" lon="5.17214">
        <ele>768</ele>
        <time>2021-09-04T12:12:48Z</time>
      </trkpt>
      <trkpt lat="44.81617" lon="5.17211">
        <ele>767</ele>
        <time>2021-09-04T12:12:58Z</time>
      </trkpt>
      <trkpt lat="44.81599" lon="5.1721">
        <ele>765</ele>
        <time>2021-09-04T12:13:22Z</time>
      </trkpt>
      <trkpt lat="44.81588" lon="5.17206">
        <ele>764</ele>
        <time>2021-09-04T12:13:37Z</time>
      </trkpt>
      <trkpt lat="44.81547" lon="5.1715">
        <ele>766</ele>
        <time>2021-09-04T12:14:53Z</time>
      </trkpt>
      <trkpt lat="44.81529" lon="5.17135">
        <ele>766</ele>
        <time>2021-09-04T12:15:21Z</time>
      </trkpt>
      <trkpt lat="44.81461" lon="5.17095">
        <ele>759</ele>
        <time>2021-09-04T12:17:00Z</time>
      </trkpt>
      <trkpt lat="44.8144" lon="5.17085">
        <ele>755</ele>
        <time>2021-09-04T12:17:29Z</time>
      </trkpt>
      <trkpt lat="44.81393" lon="5.17071">
        <ele>746</ele>
        <time>2021-09-04T12:18:33Z</time>
      </trkpt>
      <trkpt lat="44.81383" lon="5.17058">
        <ele>745</ele>
        <time>2021-09-04T12:18:52Z</time>
      </trkpt>
      <trkpt lat="44.81366" lon="5.16971">
        <ele>748</ele>
        <time>2021-09-04T12:20:17Z</time>
      </trkpt>
      <trkpt lat="44.81367" lon="5.16932">
        <ele>749</ele>
        <time>2021-09-04T12:20:54Z</time>
      </trkpt>
      <trkpt lat="44.81365" lon="5.16916">
        <ele>749</ele>
        <time>2021-09-04T12:21:09Z</time>
      </trkpt>
      <trkpt lat="44.81357" lon="5.16888">
        <ele>747</ele>
        <time>2021-09-04T12:21:38Z</time>
      </trkpt>
      <trkpt lat="44.81334" lon="5.16746">
        <ele>741</ele>
        <time>2021-09-04T12:23:56Z</time>
      </trkpt>
      <trkpt lat="44.81326" lon="5.16713">
        <ele>739</ele>
        <time>2021-09-04T12:24:29Z</time>
      </trkpt>
      <trkpt lat="44.81316" lon="5.16684">
        <ele>736</ele>
        <time>2021-09-04T12:24:59Z</time>
      </trkpt>
      <trkpt lat="44.81289" lon="5.16632">
        <ele>730</ele>
        <time>2021-09-04T12:26:00Z</time>
      </trkpt>
      <trkpt lat="44.81287" lon="5.16621">
        <ele>730</ele>
        <time>2021-09-04T12:26:11Z</time>
      </trkpt>
      <trkpt lat="44.81288" lon="5.16571">
        <ele>727</ele>
        <time>2021-09-04T12:26:58Z</time>
      </trkpt>
      <trkpt lat="44.81292" lon="5.16546">
        <ele>725</ele>
        <time>2021-09-04T12:27:23Z</time>
      </trkpt>
      <trkpt lat="44.813" lon="5.16527">
        <ele>724</ele>
        <time>2021-09-04T12:27:44Z</time>
      </trkpt>
      <trkpt lat="44.81289" lon="5.16532">
        <ele>723</ele>
        <time>2021-09-04T12:27:59Z</time>
      </trkpt>
    </trkseg>
  </trk>
</gpx>